Home > Products > Valid Products > OSO

000
SXUS55 KMSO 012344
OSOMSO
MONTANA AWOS SUMMARY
NATIONAL WEATHER SERVICE MISSOULA MT
543 PM MDT MON SEP 1 2014

Montana AWOS Reports

ROUNDUP     |KRPX 012335Z AUTO 26005KT 40SM 21/01 A2984 RMK AO1 T02110011
LAUREL      |K6S8 012335Z AUTO 29009G14KT 40SM 23/01 A2993 RMK AO1 T02280011
MALTA       |KM75 012335Z AUTO 23006KT 40SM 21/05 A2980 RMK AO1 T02110050






000
SXUS55 KMSO 012323
OSOMSO
MONTANA AWOS SUMMARY
NATIONAL WEATHER SERVICE MISSOULA MT
523 PM MDT MON SEP 1 2014

Montana AWOS Reports

PLAINS      |KS34 012255Z AUTO 00000KT 40SM 23/03 A3001 RMK AO1 T02280033
MALTA       |KM75 012255Z AUTO 25010G18KT 40SM 23/05 A2980 RMK AO1 T02280050
LAUREL      |K6S8 012315Z AUTO 27009G15KT 40SM 22/01 A2993 RMK AO1 T02220006
ROUNDUP     |KRPX 012315Z AUTO 00000KT 40SM 20/03 A2985 RMK AO1 T02000028
MALTA       |KM75 012315Z AUTO 25004KT 40SM 23/07 A2980 RMK AO1 T02280067






000
SXUS55 KMSO 012313
OSOMSO
MONTANA AWOS SUMMARY
NATIONAL WEATHER SERVICE MISSOULA MT
512 PM MDT MON SEP 1 2014

Montana AWOS Reports

SCOBEY      |K9S2 012255Z AUTO 29006KT 40SM 19/03 A2984 RMK AO1 T01940033






000
SXUS55 KMSO 012303
OSOMSO
MONTANA AWOS SUMMARY
NATIONAL WEATHER SERVICE MISSOULA MT
503 PM MDT MON SEP 1 2014

Montana AWOS Reports

LAUREL      |K6S8 012255Z AUTO 28009G14KT 40SM 22/01 A2993 RMK AO1 T02220006
ROUNDUP     |KRPX 012255Z AUTO 26005KT 40SM 21/01 A2985 RMK AO1 T02060011






000
SXUS55 KMSO 012253
OSOMSO
MONTANA AWOS SUMMARY
NATIONAL WEATHER SERVICE MISSOULA MT
453 PM MDT MON SEP 1 2014

Montana AWOS Reports

LAUREL      |K6S8 012235Z AUTO 28010G19KT 40SM 22/01 A2994 RMK AO1 T02220006
ROUNDUP     |KRPX 012235Z AUTO 30005KT 40SM 21/03 A2985 RMK AO1 T02060028
MALTA       |KM75 012235Z AUTO 24008KT 40SM 22/06 A2980 RMK AO1 T02220056






000
SXUS55 KMSO 012223
OSOMSO
MONTANA AWOS SUMMARY
NATIONAL WEATHER SERVICE MISSOULA MT
422 PM MDT MON SEP 1 2014

Montana AWOS Reports

ROUNDUP     |KRPX 012215Z AUTO 00000KT 40SM 21/03 A2986 RMK AO1 T02060033
LAUREL      |K6S8 012215Z AUTO 26011G16KT 40SM 23/01 A2994 RMK AO1 T02280006
MALTA       |KM75 012215Z AUTO 26005KT 40SM 22/07 A2981 RMK AO1 T02220072






000
SXUS55 KMSO 012203
OSOMSO
MONTANA AWOS SUMMARY
NATIONAL WEATHER SERVICE MISSOULA MT
403 PM MDT MON SEP 1 2014

Montana AWOS Reports

LAUREL      |K6S8 012155Z AUTO 26009G19KT 40SM 23/02 A2994 RMK AO1 T02280022
ROUNDUP     |KRPX 012155Z AUTO 29005KT 40SM 20/03 A2986 RMK AO1 T02000028
MALTA       |KM75 012155Z AUTO 20008KT 40SM 21/07 A2981 RMK AO1 T02110072
SCOBEY      |K9S2 012155Z AUTO 29006KT 40SM 21/04 A2983 RMK AO1 T02060039
PLAINS      |KS34 012155Z AUTO VRB04KT 40SM 22/03 A3001 RMK AO1 T02220028






000
SXUS55 KMSO 012153
OSOMSO
MONTANA AWOS SUMMARY
NATIONAL WEATHER SERVICE MISSOULA MT
352 PM MDT MON SEP 1 2014

Montana AWOS Reports

PLAINS      |KS34 012055Z AUTO 24008KT 40SM 21/02 A3002 RMK AO1 T02110022
SCOBEY      |K9S2 012055Z AUTO 31011KT 40SM 21/04 A2984 RMK AO1 T02110039






000
SXUS55 KMSO 012143
OSOMSO
MONTANA AWOS SUMMARY
NATIONAL WEATHER SERVICE MISSOULA MT
343 PM MDT MON SEP 1 2014

Montana AWOS Reports

MALTA       |KM75 012055Z AUTO 20010G17KT 40SM 21/09 A2982 RMK AO1 T02110089
LAUREL      |K6S8 012135Z AUTO 28012G16KT 40SM 22/01 A2994 RMK AO1 T02220011
ROUNDUP     |KRPX 012135Z AUTO 28007KT 40SM 21/03 A2986 RMK AO1 T02060028
MALTA       |KM75 012135Z AUTO 00000KT 40SM 21/08 A2981 RMK AO1 T02110078






000
SXUS55 KMSO 012123
OSOMSO
MONTANA AWOS SUMMARY
NATIONAL WEATHER SERVICE MISSOULA MT
323 PM MDT MON SEP 1 2014

Montana AWOS Reports

LAUREL      |K6S8 012115Z AUTO 29012G16KT 40SM 22/01 A2994 RMK AO1 T02220011
ROUNDUP     |KRPX 012115Z AUTO 27004KT 40SM 20/02 A2986 RMK AO1 T02000022
MALTA       |KM75 012115Z AUTO 18005KT 40SM 22/08 A2982 RMK AO1 T02170078






000
SXUS55 KMSO 012103
OSOMSO
MONTANA AWOS SUMMARY
NATIONAL WEATHER SERVICE MISSOULA MT
303 PM MDT MON SEP 1 2014

Montana AWOS Reports

ROUNDUP     |KRPX 012055Z AUTO 00000KT 40SM 19/03 A2987 RMK AO1 T01940028
LAUREL      |K6S8 012055Z AUTO 27010G21KT 40SM 22/02 A2995 RMK AO1 T02170017






000
SXUS55 KMSO 012044
OSOMSO
MONTANA AWOS SUMMARY
NATIONAL WEATHER SERVICE MISSOULA MT
243 PM MDT MON SEP 1 2014

Montana AWOS Reports

ROUNDUP     |KRPX 012035Z AUTO 00000KT 40SM 19/02 A2987 RMK AO1 T01890022
LAUREL      |K6S8 012035Z AUTO 28006KT 40SM 21/02 A2995 RMK AO1 T02110022






000
SXUS55 KMSO 012023
OSOMSO
MONTANA AWOS SUMMARY
NATIONAL WEATHER SERVICE MISSOULA MT
223 PM MDT MON SEP 1 2014

Montana AWOS Reports

LAUREL      |K6S8 012015Z AUTO 29012G16KT 40SM 22/02 A2996 RMK AO1 T02170022
ROUNDUP     |KRPX 012015Z AUTO 33008KT 40SM 19/03 A2987 RMK AO1 T01890028
MALTA       |KM75 012015Z AUTO 25007KT 40SM 22/06 A2982 RMK AO1 T02170061






000
SXUS55 KMSO 012013
OSOMSO
MONTANA AWOS SUMMARY
NATIONAL WEATHER SERVICE MISSOULA MT
213 PM MDT MON SEP 1 2014

Montana AWOS Reports

SCOBEY      |K9S2 011955Z AUTO 30010G17KT 40SM 21/04 A2985 RMK AO1 T02110039






000
SXUS55 KMSO 012004
OSOMSO
MONTANA AWOS SUMMARY
NATIONAL WEATHER SERVICE MISSOULA MT
203 PM MDT MON SEP 1 2014

Montana AWOS Reports

PLAINS      |KS34 011955Z AUTO 21007KT 170V250 40SM 21/03 A3003 RMK AO1 T02060028
LAUREL      |K6S8 011955Z AUTO 26012G17KT 40SM 21/02 A2996 RMK AO1 T02110022
ROUNDUP     |KRPX 011955Z AUTO 29004KT 40SM 19/02 A2987 RMK AO1 T01890022






000
SXUS55 KMSO 011923
OSOMSO
MONTANA AWOS SUMMARY
NATIONAL WEATHER SERVICE MISSOULA MT
123 PM MDT MON SEP 1 2014

Montana AWOS Reports

LAUREL      |K6S8 011915Z AUTO 28011G15KT 40SM 20/01 A2997 RMK AO1 T02000011
ROUNDUP     |KRPX 011915Z AUTO 00000KT 40SM 19/02 A2987 RMK AO1 T01890022
MALTA       |KM75 011915Z AUTO 00000KT 40SM 21/08 A2984 RMK AO1 T02060083






000
SXUS55 KMSO 011903
OSOMSO
MONTANA AWOS SUMMARY
NATIONAL WEATHER SERVICE MISSOULA MT
103 PM MDT MON SEP 1 2014

Montana AWOS Reports

LAUREL      |K6S8 011855Z AUTO 30005KT 40SM 20/02 A2998 RMK AO1 T02000017
ROUNDUP     |KRPX 011855Z AUTO 00000KT 40SM 19/03 A2988 RMK AO1 T01890028
MALTA       |KM75 011855Z AUTO 23008KT 40SM 20/08 A2985 RMK AO1 T02000078
SCOBEY      |K9S2 011855Z AUTO 25015G22KT 40SM 21/03 A2984 RMK AO1 T02110033
PLAINS      |KS34 011855Z AUTO 19016G21KT 40SM 21/04 A3003 RMK AO1 T02060039






000
SXUS55 KMSO 011843
OSOMSO
MONTANA AWOS SUMMARY
NATIONAL WEATHER SERVICE MISSOULA MT
1243 PM MDT MON SEP 1 2014

Montana AWOS Reports

LAUREL      |K6S8 011835Z AUTO 28010G16KT 40SM 19/02 A2998 RMK AO1 T01940022
ROUNDUP     |KRPX 011835Z AUTO 00000KT 40SM 19/03 A2988 RMK AO1 T01890028
MALTA       |KM75 011835Z AUTO 24007KT 40SM 20/07 A2985 RMK AO1 T02000072






000
SXUS55 KMSO 011824
OSOMSO
MONTANA AWOS SUMMARY
NATIONAL WEATHER SERVICE MISSOULA MT
1223 PM MDT MON SEP 1 2014

Montana AWOS Reports

LAUREL      |K6S8 011815Z AUTO 27012G18KT 40SM 19/01 A2998 RMK AO1 T01940011
ROUNDUP     |KRPX 011815Z AUTO 00000KT 40SM 19/03 A2988 RMK AO1 T01890028






000
SXUS55 KMSO 011803
OSOMSO
MONTANA AWOS SUMMARY
NATIONAL WEATHER SERVICE MISSOULA MT
1202 PM MDT MON SEP 1 2014

Montana AWOS Reports

LAUREL      |K6S8 011755Z AUTO 30004KT 40SM 19/03 A2998 RMK AO1 T01940028
ROUNDUP     |KRPX 011755Z AUTO 26007KT 40SM 18/03 A2988 RMK AO1 T01830028
SCOBEY      |K9S2 011755Z AUTO 24015G19KT 40SM 21/04 A2985 RMK AO1 T02060039
MALTA       |KM75 011755Z AUTO 40SM 19/08 A2986 RMK AO1 T01890083
PLAINS      |KS34 011755Z AUTO 00000KT 40SM 18/06 A3004 RMK AO1 T01830056






000
SXUS55 KMSO 011743
OSOMSO
MONTANA AWOS SUMMARY
NATIONAL WEATHER SERVICE MISSOULA MT
1143 AM MDT MON SEP 1 2014

Montana AWOS Reports

ROUNDUP     |KRPX 011735Z AUTO 00000KT 40SM 18/03 A2989 RMK AO1 T01830033
LAUREL      |K6S8 011735Z AUTO 30008KT 40SM 19/03 A2998 RMK AO1 T01890028






000
SXUS55 KMSO 011723
OSOMSO
MONTANA AWOS SUMMARY
NATIONAL WEATHER SERVICE MISSOULA MT
1123 AM MDT MON SEP 1 2014

Montana AWOS Reports

ROUNDUP     |KRPX 011715Z AUTO 00000KT 40SM 18/03 A2989 RMK AO1 T01780033
LAUREL      |K6S8 011715Z AUTO 23005KT 40SM 19/04 A2998 RMK AO1 T01890039
MALTA       |KM75 011715Z AUTO 25011KT 40SM 18/08 A2986 RMK AO1 T01830083






000
SXUS55 KMSO 011703
OSOMSO
MONTANA AWOS SUMMARY
NATIONAL WEATHER SERVICE MISSOULA MT
1103 AM MDT MON SEP 1 2014

Montana AWOS Reports

SCOBEY      |K9S2 011655Z AUTO 26013KT 40SM 19/05 A2985 RMK AO1 T01940050
LAUREL      |K6S8 011655Z AUTO VRB04KT 40SM 17/07 A2999 RMK AO1 T01670067
ROUNDUP     |KRPX 011655Z AUTO 40SM 17/04 A2989 RMK AO1 T01720039
PLAINS      |KS34 011655Z AUTO 00000KT 40SM 17/07 A3005 RMK AO1 T01670072
MALTA       |KM75 011655Z AUTO 23008KT 40SM 18/09 A2986 RMK AO1 T01780089






000
SXUS55 KMSO 011644
OSOMSO
MONTANA AWOS SUMMARY
NATIONAL WEATHER SERVICE MISSOULA MT
1043 AM MDT MON SEP 1 2014

Montana AWOS Reports

LAUREL      |K6S8 011635Z AUTO 18004KT 40SM 15/08 A2999 RMK AO1 T01500078
ROUNDUP     |KRPX 011635Z AUTO 24005KT 40SM 16/04 A2990 RMK AO1 T01610039
MALTA       |KM75 011635Z AUTO 26004KT 40SM 18/08 A2986 RMK AO1 T01780078






000
SXUS55 KMSO 011623
OSOMSO
MONTANA AWOS SUMMARY
NATIONAL WEATHER SERVICE MISSOULA MT
1023 AM MDT MON SEP 1 2014

Montana AWOS Reports

LAUREL      |K6S8 011615Z AUTO 00000KT 40SM 14/08 A2999 RMK AO1 T01440078
ROUNDUP     |KRPX 011615Z AUTO 00000KT 40SM 16/06 A2990 RMK AO1 T01560056
MALTA       |KM75 011615Z AUTO 00000KT 40SM 17/08 A2986 RMK AO1 T01720083






000
SXUS55 KMSO 011613
OSOMSO
MONTANA AWOS SUMMARY
NATIONAL WEATHER SERVICE MISSOULA MT
1013 AM MDT MON SEP 1 2014

Montana AWOS Reports

LAUREL      |K6S8 011555Z AUTO 00000KT 40SM 13/08 A2999 RMK AO1 T01330078
SCOBEY      |K9S2 011555Z AUTO 00000KT 40SM 16/08 A2986 RMK AO1 T01560083






000
SXUS55 KMSO 011603
OSOMSO
MONTANA AWOS SUMMARY
NATIONAL WEATHER SERVICE MISSOULA MT
1002 AM MDT MON SEP 1 2014

Montana AWOS Reports

ROUNDUP     |KRPX 011555Z AUTO 20006KT 40SM 15/06 A2989 RMK AO1 T01500056
MALTA       |KM75 011555Z AUTO 26004KT 40SM 16/09 A2986 RMK AO1 T01610089
PLAINS      |KS34 011555Z AUTO 00000KT 40SM 12/07 A3006 RMK AO1 T01220067






000
SXUS55 KMSO 011543
OSOMSO
MONTANA AWOS SUMMARY
NATIONAL WEATHER SERVICE MISSOULA MT
943 AM MDT MON SEP 1 2014

Montana AWOS Reports

LAUREL      |K6S8 011535Z AUTO 00000KT 40SM 13/08 A2999 RMK AO1 T01330078
ROUNDUP     |KRPX 011535Z AUTO 20005KT 40SM 14/06 A2989 RMK AO1 T01440061






000
SXUS55 KMSO 011523
OSOMSO
MONTANA AWOS SUMMARY
NATIONAL WEATHER SERVICE MISSOULA MT
923 AM MDT MON SEP 1 2014

Montana AWOS Reports

LAUREL      |K6S8 011515Z AUTO 00000KT 40SM 13/08 A2999 RMK AO1 T01330078
ROUNDUP     |KRPX 011515Z AUTO 21004KT 40SM 13/05 A2989 RMK AO1 T01330050
MALTA       |KM75 011515Z AUTO 00000KT 40SM 16/07 A2986 RMK AO1 T01560072






000
SXUS55 KMSO 011503
OSOMSO
MONTANA AWOS SUMMARY
NATIONAL WEATHER SERVICE MISSOULA MT
903 AM MDT MON SEP 1 2014

Montana AWOS Reports

LAUREL      |K6S8 011455Z AUTO 00000KT 40SM 13/08 A2999 RMK AO1 T01280083
ROUNDUP     |KRPX 011455Z AUTO 20007KT 40SM 12/06 A2989 RMK AO1 T01220056
MALTA       |KM75 011455Z AUTO 26004KT 40SM 14/07 A2986 RMK AO1 T01440067






000
SXUS55 KMSO 011453
OSOMSO
MONTANA AWOS SUMMARY
NATIONAL WEATHER SERVICE MISSOULA MT
853 AM MDT MON SEP 1 2014

Montana AWOS Reports

LAUREL      |K6S8 011435Z AUTO 00000KT 40SM 12/08 A2998 RMK AO1 T01170083
ROUNDUP     |KRPX 011435Z AUTO 20006KT 40SM 12/06 A2989 RMK AO1 T01170056






000
SXUS55 KMSO 011423
OSOMSO
MONTANA AWOS SUMMARY
NATIONAL WEATHER SERVICE MISSOULA MT
823 AM MDT MON SEP 1 2014

Montana AWOS Reports

ROUNDUP     |KRPX 011415Z AUTO 20009KT 40SM 11/06 A2989 RMK AO1 T01110056
LAUREL      |K6S8 011415Z AUTO 00000KT 40SM 11/08 A2998 RMK AO1 T01110078
MALTA       |KM75 011415Z AUTO 28004KT 40SM 14/08 A2985 RMK AO1 T01390078






000
SXUS55 KMSO 011403
OSOMSO
MONTANA AWOS SUMMARY
NATIONAL WEATHER SERVICE MISSOULA MT
803 AM MDT MON SEP 1 2014

Montana AWOS Reports

LAUREL      |K6S8 011355Z AUTO 19004KT 40SM 11/08 A2998 RMK AO1 T01110078
SCOBEY      |K9S2 011355Z AUTO 00000KT 40SM 08/05 A2985 RMK AO1 T00830050
PLAINS      |KS34 011355Z AUTO 00000KT 25SM 05/03 A3006 RMK AO1 T00500028
MALTA       |KM75 011355Z AUTO 29005KT 40SM 14/07 A2984 RMK AO1 T01390067






000
SXUS55 KMSO 011343
OSOMSO
MONTANA AWOS SUMMARY
NATIONAL WEATHER SERVICE MISSOULA MT
743 AM MDT MON SEP 1 2014

Montana AWOS Reports

LAUREL      |K6S8 011335Z AUTO 20007KT 40SM 11/08 A2998 RMK AO1 T01110083
ROUNDUP     |KRPX 011335Z AUTO 20006KT 40SM 09/05 A2988 RMK AO1 T00940050






000
SXUS55 KMSO 011323
OSOMSO
MONTANA AWOS SUMMARY
NATIONAL WEATHER SERVICE MISSOULA MT
722 AM MDT MON SEP 1 2014

Montana AWOS Reports

LAUREL      |K6S8 011315Z AUTO 19004KT 40SM 11/08 A2998 RMK AO1 T01060078
ROUNDUP     |KRPX 011315Z AUTO 20007KT 40SM 09/05 A2988 RMK AO1 T00890050






000
SXUS55 KMSO 011304
OSOMSO
MONTANA AWOS SUMMARY
NATIONAL WEATHER SERVICE MISSOULA MT
703 AM MDT MON SEP 1 2014

Montana AWOS Reports

LAUREL      |K6S8 011255Z AUTO 18005KT 40SM 11/08 A2998 RMK AO1 T01060078
ROUNDUP     |KRPX 011255Z AUTO 19010KT 40SM 08/05 A2988 RMK AO1 T00830050
MALTA       |KM75 011255Z AUTO 00000KT 40SM 11/07 A2984 RMK AO1 T01060072






000
SXUS55 KMSO 011243
OSOMSO
MONTANA AWOS SUMMARY
NATIONAL WEATHER SERVICE MISSOULA MT
643 AM MDT MON SEP 1 2014

Montana AWOS Reports

LAUREL      |K6S8 011235Z AUTO 18005KT 40SM 11/08 A2998 RMK AO1 T01110078
ROUNDUP     |KRPX 011235Z AUTO 19010KT 40SM 08/05 A2988 RMK AO1 T00830050
MALTA       |KM75 011235Z AUTO 00000KT 40SM 11/08 A2984 RMK AO1 T01060078






000
SXUS55 KMSO 011223
OSOMSO
MONTANA AWOS SUMMARY
NATIONAL WEATHER SERVICE MISSOULA MT
623 AM MDT MON SEP 1 2014

Montana AWOS Reports

LAUREL      |K6S8 011215Z AUTO 18004KT 25SM 11/07 A2998 RMK AO1 T01110072
ROUNDUP     |KRPX 011215Z AUTO 20008KT 40SM 08/05 A2988 RMK AO1 T00830050
MALTA       |KM75 011215Z AUTO 00000KT 40SM 11/08 A2984 RMK AO1 T01060078






000
SXUS55 KMSO 011203
OSOMSO
MONTANA AWOS SUMMARY
NATIONAL WEATHER SERVICE MISSOULA MT
603 AM MDT MON SEP 1 2014

Montana AWOS Reports

LAUREL      |K6S8 011155Z AUTO 00000KT 40SM 11/07 A2997 RMK AO1 T01110072
PLAINS      |KS34 011155Z AUTO 00000KT 40SM 05/02 A3004 RMK AO1 T00500022






000
SXUS55 KMSO 011143
OSOMSO
MONTANA AWOS SUMMARY
NATIONAL WEATHER SERVICE MISSOULA MT
543 AM MDT MON SEP 1 2014

Montana AWOS Reports

LAUREL      |K6S8 011135Z AUTO 00000KT 7SM 12/08 A2997 RMK AO1 T01170078
ROUNDUP     |KRPX 011135Z AUTO 20007KT 40SM 08/06 A2986 RMK AO1 T00830056






000
SXUS55 KMSO 011124
OSOMSO
MONTANA AWOS SUMMARY
NATIONAL WEATHER SERVICE MISSOULA MT
523 AM MDT MON SEP 1 2014

Montana AWOS Reports

LAUREL      |K6S8 011115Z AUTO 00000KT 10SM 12/07 A2996 RMK AO1 T01170072
ROUNDUP     |KRPX 011115Z AUTO 20008KT 40SM 08/06 A2986 RMK AO1 T00830056
MALTA       |KM75 011115Z AUTO 00000KT 40SM 10/07 A2983 RMK AO1 T01000067






000
SXUS55 KMSO 011103
OSOMSO
MONTANA AWOS SUMMARY
NATIONAL WEATHER SERVICE MISSOULA MT
503 AM MDT MON SEP 1 2014

Montana AWOS Reports

LAUREL      |K6S8 011055Z AUTO 00000KT 25SM 11/07 A2996 RMK AO1 T01110072
ROUNDUP     |KRPX 011055Z AUTO 20007KT 40SM 09/06 A2986 RMK AO1 T00890056
MALTA       |KM75 011055Z AUTO 00000KT 40SM 10/07 A2983 RMK AO1 T01000067
PLAINS      |KS34 011055Z AUTO 00000KT 40SM 06/03 A3003 RMK AO1 T00560028
SCOBEY      |K9S2 011055Z AUTO 00000KT 40SM 05/02 A2982 RMK AO1 T00500017






000
SXUS55 KMSO 011043
OSOMSO
MONTANA AWOS SUMMARY
NATIONAL WEATHER SERVICE MISSOULA MT
443 AM MDT MON SEP 1 2014

Montana AWOS Reports

LAUREL      |K6S8 011035Z AUTO 21005KT 10SM 11/07 A2995 RMK AO1 T01110072
ROUNDUP     |KRPX 011035Z AUTO 20006KT 40SM 09/06 A2986 RMK AO1 T00940061
MALTA       |KM75 011035Z AUTO 00000KT 40SM 10/07 A2983 RMK AO1 T01000067






000
SXUS55 KMSO 011023
OSOMSO
MONTANA AWOS SUMMARY
NATIONAL WEATHER SERVICE MISSOULA MT
423 AM MDT MON SEP 1 2014

Montana AWOS Reports

LAUREL      |K6S8 011015Z AUTO 24004KT 10SM 11/07 A2995 RMK AO1 T01110072
ROUNDUP     |KRPX 011015Z AUTO 21008KT 40SM 09/06 A2986 RMK AO1 T00940056
MALTA       |KM75 011015Z AUTO 00000KT 40SM 11/07 A2984 RMK AO1 T01060072






000
SXUS55 KMSO 011013
OSOMSO
MONTANA AWOS SUMMARY
NATIONAL WEATHER SERVICE MISSOULA MT
413 AM MDT MON SEP 1 2014

Montana AWOS Reports

PLAINS      |KS34 010955Z AUTO 00000KT 40SM 07/03 A3002 RMK AO1 T00670033
SCOBEY      |K9S2 010955Z AUTO 00000KT 25SM 06/03 A2983 RMK AO1 T00610033






000
SXUS55 KMSO 011004
OSOMSO
MONTANA AWOS SUMMARY
NATIONAL WEATHER SERVICE MISSOULA MT
403 AM MDT MON SEP 1 2014

Montana AWOS Reports

LAUREL      |K6S8 010955Z AUTO 00000KT 40SM 12/07 A2994 RMK AO1 T01220072
MALTA       |KM75 010955Z AUTO 00000KT 40SM 11/07 A2984 RMK AO1 T01060072






000
SXUS55 KMSO 010953
OSOMSO
MONTANA AWOS SUMMARY
NATIONAL WEATHER SERVICE MISSOULA MT
353 AM MDT MON SEP 1 2014

Montana AWOS Reports

LAUREL      |K6S8 010935Z AUTO 25004KT 40SM 12/07 A2994 RMK AO1 T01170072
ROUNDUP     |KRPX 010935Z AUTO 21006KT 40SM 10/06 A2986 RMK AO1 T01000061
MALTA       |KM75 010935Z AUTO 00000KT 40SM 11/07 A2984 RMK AO1 T01110072






000
SXUS55 KMSO 010923
OSOMSO
MONTANA AWOS SUMMARY
NATIONAL WEATHER SERVICE MISSOULA MT
323 AM MDT MON SEP 1 2014

Montana AWOS Reports

ROUNDUP     |KRPX 010915Z AUTO 21005KT 40SM 10/06 A2986 RMK AO1 T01000061
LAUREL      |K6S8 010915Z AUTO 00000KT 40SM 12/07 A2994 RMK AO1 T01170072
MALTA       |KM75 010915Z AUTO 00000KT 40SM 11/07 A2984 RMK AO1 T01110072






000
SXUS55 KMSO 010913
OSOMSO
MONTANA AWOS SUMMARY
NATIONAL WEATHER SERVICE MISSOULA MT
313 AM MDT MON SEP 1 2014

Montana AWOS Reports

PLAINS      |KS34 010855Z AUTO 00000KT 40SM 08/04 A3002 RMK AO1 T00780039
SCOBEY      |K9S2 010855Z AUTO 00000KT 40SM 08/05 A2982 RMK AO1 T00780050






000
SXUS55 KMSO 010903
OSOMSO
MONTANA AWOS SUMMARY
NATIONAL WEATHER SERVICE MISSOULA MT
303 AM MDT MON SEP 1 2014

Montana AWOS Reports

LAUREL      |K6S8 010855Z AUTO 22005KT 40SM 12/07 A2995 RMK AO1 T01170067
ROUNDUP     |KRPX 010855Z AUTO 21007KT 40SM 11/07 A2986 RMK AO1 T01060067
MALTA       |KM75 010855Z AUTO 00000KT 40SM 12/08 A2984 RMK AO1 T01170078






000
SXUS55 KMSO 010843
OSOMSO
MONTANA AWOS SUMMARY
NATIONAL WEATHER SERVICE MISSOULA MT
243 AM MDT MON SEP 1 2014

Montana AWOS Reports

LAUREL      |K6S8 010835Z AUTO 00000KT 40SM 12/07 A2994 RMK AO1 T01170072
ROUNDUP     |KRPX 010835Z AUTO 21007KT 40SM 11/07 A2986 RMK AO1 T01060067
MALTA       |KM75 010835Z AUTO 00000KT 40SM 12/08 A2983 RMK AO1 T01170078






000
SXUS55 KMSO 010824
OSOMSO
MONTANA AWOS SUMMARY
NATIONAL WEATHER SERVICE MISSOULA MT
223 AM MDT MON SEP 1 2014

Montana AWOS Reports

LAUREL      |K6S8 010815Z AUTO 00000KT 40SM 12/07 A2994 RMK AO1 T01170067
ROUNDUP     |KRPX 010815Z AUTO 21005KT 40SM 11/07 A2986 RMK AO1 T01060067
MALTA       |KM75 010815Z AUTO 00000KT 40SM 12/08 A2983 RMK AO1 T01220078






000
SXUS55 KMSO 010813
OSOMSO
MONTANA AWOS SUMMARY
NATIONAL WEATHER SERVICE MISSOULA MT
212 AM MDT MON SEP 1 2014

Montana AWOS Reports

LAUREL      |K6S8 010755Z AUTO 21004KT 40SM 12/07 A2994 RMK AO1 T01220072
PLAINS      |KS34 010755Z AUTO 00000KT 40SM 09/04 A3001 RMK AO1 T00890044
MALTA       |KM75 010755Z AUTO 00000KT 40SM 13/08 A2982 RMK AO1 T01280083
SCOBEY      |K9S2 010755Z AUTO 00000KT 40SM 08/06 A2981 RMK AO1 T00830056






000
SXUS55 KMSO 010803
OSOMSO
MONTANA AWOS SUMMARY
NATIONAL WEATHER SERVICE MISSOULA MT
203 AM MDT MON SEP 1 2014

Montana AWOS Reports

ROUNDUP     |KRPX 010755Z AUTO 00000KT 40SM 11/07 A2986 RMK AO1 T01110067






000
SXUS55 KMSO 010744
OSOMSO
MONTANA AWOS SUMMARY
NATIONAL WEATHER SERVICE MISSOULA MT
143 AM MDT MON SEP 1 2014

Montana AWOS Reports

LAUREL      |K6S8 010735Z AUTO 21004KT 40SM 12/07 A2994 RMK AO1 T01220072
ROUNDUP     |KRPX 010735Z AUTO 21009KT 40SM 12/07 A2986 RMK AO1 T01170067
MALTA       |KM75 010735Z AUTO 00000KT 40SM 13/08 A2982 RMK AO1 T01280078






000
SXUS55 KMSO 010723
OSOMSO
MONTANA AWOS SUMMARY
NATIONAL WEATHER SERVICE MISSOULA MT
123 AM MDT MON SEP 1 2014

Montana AWOS Reports

ROUNDUP     |KRPX 010715Z AUTO 22006KT 40SM 11/07 A2986 RMK AO1 T01110067
LAUREL      |K6S8 010715Z AUTO 23004KT 40SM 12/08 A2994 RMK AO1 T01220078
MALTA       |KM75 010715Z AUTO 00000KT 40SM 13/09 A2982 RMK AO1 T01330089






000
SXUS55 KMSO 010703
OSOMSO
MONTANA AWOS SUMMARY
NATIONAL WEATHER SERVICE MISSOULA MT
103 AM MDT MON SEP 1 2014

Montana AWOS Reports

LAUREL      |K6S8 010655Z AUTO 22004KT 40SM 12/08 A2994 RMK AO1 T01220078
ROUNDUP     |KRPX 010655Z AUTO 22004KT 40SM 12/07 A2985 RMK AO1 T01170067
PLAINS      |KS34 010655Z AUTO 00000KT 40SM 09/04 A3000 RMK AO1 T00940044
SCOBEY      |K9S2 010655Z AUTO 00000KT 40SM 09/06 A2980 RMK AO1 T00940061
MALTA       |KM75 010655Z AUTO 00000KT 40SM 14/09 A2982 RMK AO1 T01390089






000
SXUS55 KMSO 010643
OSOMSO
MONTANA AWOS SUMMARY
NATIONAL WEATHER SERVICE MISSOULA MT
1243 AM MDT MON SEP 1 2014

Montana AWOS Reports

LAUREL      |K6S8 010635Z AUTO 00000KT 40SM 12/08 A2994 RMK AO1 T01220078
ROUNDUP     |KRPX 010635Z AUTO 00000KT 40SM 12/07 A2985 RMK AO1 T01170067
MALTA       |KM75 010635Z AUTO 00000KT 40SM 14/09 A2982 RMK AO1 T01440094






000
SXUS55 KMSO 010623
OSOMSO
MONTANA AWOS SUMMARY
NATIONAL WEATHER SERVICE MISSOULA MT
1222 AM MDT MON SEP 1 2014

Montana AWOS Reports

SCOBEY      |K9S2 010555Z AUTO 00000KT 40SM 11/07 A2981 RMK AO1 T01110072
LAUREL      |K6S8 010615Z AUTO 00000KT 40SM 12/08 A2994 RMK AO1 T01220078
ROUNDUP     |KRPX 010615Z AUTO 00000KT 40SM 12/07 A2985 RMK AO1 T01170067
MALTA       |KM75 010615Z AUTO 00000KT 40SM 15/09 A2982 RMK AO1 T01500089






000
SXUS55 KMSO 010604
OSOMSO
MONTANA AWOS SUMMARY
NATIONAL WEATHER SERVICE MISSOULA MT
1203 AM MDT MON SEP 1 2014

Montana AWOS Reports

MALTA       |KM75 010555Z AUTO 00000KT 40SM 16/07 A2981 RMK AO1 T01560072
PLAINS      |KS34 010555Z AUTO 00000KT 40SM 10/05 A3000 RMK AO1 T01000050
LAUREL      |K6S8 010555Z AUTO 00000KT 25SM 12/07 A2994 RMK AO1 T01220072
ROUNDUP     |KRPX 010555Z AUTO 00000KT 40SM 12/07 A2984 RMK AO1 T01220067






000
SXUS55 KMSO 010544
OSOMSO
MONTANA AWOS SUMMARY
NATIONAL WEATHER SERVICE MISSOULA MT
1143 PM MDT SUN AUG 31 2014

Montana AWOS Reports

LAUREL      |K6S8 010535Z AUTO 00000KT 40SM 12/07 A2994 RMK AO1 T01220072
ROUNDUP     |KRPX 010535Z AUTO 00000KT 40SM 12/07 A2984 RMK AO1 T01220067
MALTA       |KM75 010535Z AUTO 00000KT 40SM 15/08 A2981 RMK AO1 T01500078






000
SXUS55 KMSO 010523
OSOMSO
MONTANA AWOS SUMMARY
NATIONAL WEATHER SERVICE MISSOULA MT
1123 PM MDT SUN AUG 31 2014

Montana AWOS Reports

SCOBEY      |K9S2 010455Z AUTO 17017G22KT 070V270 25SM 13/07 A2980 RMK AO1 T01280072
MALTA       |KM75 010515Z AUTO 00000KT 40SM 16/08 A2980 RMK AO1 T01560078
LAUREL      |K6S8 010515Z AUTO 00000KT 40SM 13/08 A2994 RMK AO1 T01280078
ROUNDUP     |KRPX 010515Z AUTO 00000KT 40SM 12/06 A2984 RMK AO1 T01220061






000
SXUS55 KMSO 010503
OSOMSO
MONTANA AWOS SUMMARY
NATIONAL WEATHER SERVICE MISSOULA MT
1103 PM MDT SUN AUG 31 2014

Montana AWOS Reports

LAUREL      |K6S8 010455Z AUTO 00000KT 40SM 13/08 A2994 RMK AO1 T01280078
ROUNDUP     |KRPX 010455Z AUTO 00000KT 40SM 12/07 A2984 RMK AO1 T01220067






000
SXUS55 KMSO 010443
OSOMSO
MONTANA AWOS SUMMARY
NATIONAL WEATHER SERVICE MISSOULA MT
1043 PM MDT SUN AUG 31 2014

Montana AWOS Reports

LAUREL      |K6S8 010435Z AUTO 00000KT 40SM 13/08 A2994 RMK AO1 T01280078
ROUNDUP     |KRPX 010435Z AUTO 00000KT 40SM 12/06 A2984 RMK AO1 T01220061
MALTA       |KM75 010435Z AUTO 34008KT 40SM 16/08 A2979 RMK AO1 T01610078






000
SXUS55 KMSO 010423
OSOMSO
MONTANA AWOS SUMMARY
NATIONAL WEATHER SERVICE MISSOULA MT
1023 PM MDT SUN AUG 31 2014

Montana AWOS Reports

MALTA       |KM75 010415Z AUTO 34009G13KT 40SM 16/08 A2979 RMK AO1 T01610083
LAUREL      |K6S8 010415Z AUTO 21004KT 40SM 13/08 A2993 RMK AO1 T01330078
ROUNDUP     |KRPX 010415Z AUTO 00000KT 40SM 13/06 A2984 RMK AO1 T01330061






000
SXUS55 KMSO 010413
OSOMSO
MONTANA AWOS SUMMARY
NATIONAL WEATHER SERVICE MISSOULA MT
1012 PM MDT SUN AUG 31 2014

Montana AWOS Reports

MALTA       |KM75 010255Z AUTO 32006KT 40SM 17/08 A2977 RMK AO1 T01720083
MALTA       |KM75 010355Z AUTO 33008KT 40SM 18/11 A2979 RMK AO1 T01830106






000
SXUS55 KMSO 010403
OSOMSO
MONTANA AWOS SUMMARY
NATIONAL WEATHER SERVICE MISSOULA MT
1003 PM MDT SUN AUG 31 2014

Montana AWOS Reports

LAUREL      |K6S8 010355Z AUTO 20005KT 40SM 13/07 A2993 RMK AO1 T01330072
MALTA       |KM75 010355Z AUTO 33008KT 40SM 18/11 A2979 RMK AO1 T01830106
ROUNDUP     |KRPX 010355Z AUTO 00000KT 40SM 13/06 A2983 RMK AO1 T01330061
SCOBEY      |K9S2 010355Z AUTO 28006KT 40SM 14/09 A2981 RMK AO1 T01390089
PLAINS      |KS34 010355Z AUTO 00000KT 40SM 16/07 A2999 RMK AO1 T01610067






000
SXUS55 KMSO 010344
OSOMSO
MONTANA AWOS SUMMARY
NATIONAL WEATHER SERVICE MISSOULA MT
943 PM MDT SUN AUG 31 2014

Montana AWOS Reports

LAUREL      |K6S8 010335Z AUTO 23004KT 40SM 14/08 A2993 RMK AO1 T01390078
MALTA       |KM75 010335Z AUTO 33006KT 40SM 16/08 A2978 RMK AO1 T01610083
ROUNDUP     |KRPX 010335Z AUTO 00000KT 40SM 13/06 A2983 RMK AO1 T01330061






000
SXUS55 KMSO 010333
OSOMSO
MONTANA AWOS SUMMARY
NATIONAL WEATHER SERVICE MISSOULA MT
933 PM MDT SUN AUG 31 2014

Montana AWOS Reports

LAUREL      |K6S8 010315Z AUTO 21004KT 40SM 14/07 A2993 RMK AO1 T01390072
ROUNDUP     |KRPX 010315Z AUTO 00000KT 40SM 13/05 A2983 RMK AO1 T01330050






000
SXUS55 KMSO 010303
OSOMSO
MONTANA AWOS SUMMARY
NATIONAL WEATHER SERVICE MISSOULA MT
903 PM MDT SUN AUG 31 2014

Montana AWOS Reports

LAUREL      |K6S8 010255Z AUTO 00000KT 40SM 14/07 A2992 RMK AO1 T01390072
ROUNDUP     |KRPX 010255Z AUTO 00000KT 40SM 14/04 A2983 RMK AO1 T01440044






000
SXUS55 KMSO 010243
OSOMSO
MONTANA AWOS SUMMARY
NATIONAL WEATHER SERVICE MISSOULA MT
843 PM MDT SUN AUG 31 2014

Montana AWOS Reports

MALTA       |KM75 010235Z AUTO 32007KT 40SM 18/08 A2977 RMK AO1 T01830078
LAUREL      |K6S8 010235Z AUTO 00000KT 40SM 14/08 A2991 RMK AO1 T01440078
ROUNDUP     |KRPX 010235Z AUTO 00000KT 40SM 14/05 A2982 RMK AO1 T01440050






000
SXUS55 KMSO 010223
OSOMSO
MONTANA AWOS SUMMARY
NATIONAL WEATHER SERVICE MISSOULA MT
823 PM MDT SUN AUG 31 2014

Montana AWOS Reports

LAUREL      |K6S8 010215Z AUTO 00000KT 40SM 16/08 A2991 RMK AO1 T01560078
ROUNDUP     |KRPX 010215Z AUTO 00000KT 40SM 15/04 A2982 RMK AO1 T01500044
MALTA       |KM75 010215Z AUTO 00000KT 40SM 18/07 A2976 RMK AO1 T01830072






000
SXUS55 KMSO 010213
OSOMSO
MONTANA AWOS SUMMARY
NATIONAL WEATHER SERVICE MISSOULA MT
812 PM MDT SUN AUG 31 2014

Montana AWOS Reports

SCOBEY      |K9S2 010055Z AUTO 03009G13KT 40SM 18/08 A2976 RMK AO1 T01780083
PLAINS      |KS34 010155Z AUTO 00000KT 40SM 18/05 A2998 RMK AO1 T01780050
SCOBEY      |K9S2 010155Z AUTO 05004KT 40SM 14/07 A2976 RMK AO1 T01440072
MALTA       |KM75 010055Z AUTO 00000KT 40SM 22/08 A2973 RMK AO1 T02170083
ROUNDUP     |KRPX 010055Z AUTO 00000KT 40SM 18/05 A2981 RMK AO1 T01830050
MALTA       |KM75 010155Z AUTO 00000KT 40SM 19/07 A2975 RMK AO1 T01940067






000
SXUS55 KMSO 010203
OSOMSO
MONTANA AWOS SUMMARY
NATIONAL WEATHER SERVICE MISSOULA MT
803 PM MDT SUN AUG 31 2014

Montana AWOS Reports

LAUREL      |K6S8 010155Z AUTO 00000KT 40SM 16/08 A2991 RMK AO1 T01610078
ROUNDUP     |KRPX 010155Z AUTO 00000KT 40SM 16/05 A2981 RMK AO1 T01560050
MALTA       |KM75 010155Z AUTO 00000KT 40SM 19/07 A2975 RMK AO1 T01940067
PLAINS      |KS34 010055Z AUTO 22009G15KT 40SM 19/03 A2998 RMK AO1 T01890033






000
SXUS55 KMSO 010144
OSOMSO
MONTANA AWOS SUMMARY
NATIONAL WEATHER SERVICE MISSOULA MT
743 PM MDT SUN AUG 31 2014

Montana AWOS Reports

LAUREL      |K6S8 010135Z AUTO 16005KT 40SM 16/08 A2991 RMK AO1 T01610078
ROUNDUP     |KRPX 010135Z AUTO 24020G29KT 25SM 17/06 A2982 RMK AO1 T01720056






000
SXUS55 KMSO 010123
OSOMSO
MONTANA AWOS SUMMARY
NATIONAL WEATHER SERVICE MISSOULA MT
723 PM MDT SUN AUG 31 2014

Montana AWOS Reports

LAUREL      |K6S8 010055Z AUTO 30005KT 40SM 16/08 A2989 RMK AO1 T01610078
ROUNDUP     |KRPX 010055Z AUTO 00000KT 40SM 18/05 A2981 RMK AO1 T01830050
MALTA       |KM75 010115Z AUTO 00000KT 40SM 21/09 A2974 RMK AO1 T02110089
LAUREL      |K6S8 010115Z AUTO 00000KT 40SM 16/09 A2990 RMK AO1 T01560089
ROUNDUP     |KRPX 010115Z AUTO 27006KT 40SM 18/04 A2981 RMK AO1 T01780044






000
SXUS55 KMSO 010044
OSOMSO
MONTANA AWOS SUMMARY
NATIONAL WEATHER SERVICE MISSOULA MT
643 PM MDT SUN AUG 31 2014

Montana AWOS Reports

LAUREL      |K6S8 010035Z AUTO 32005KT 40SM 18/08 A2989 RMK AO1 T01780083
ROUNDUP     |KRPX 010035Z AUTO 00000KT 40SM 20/04 A2980 RMK AO1 T02000044






000
SXUS55 KMSO 312343
OSOMSO
MONTANA AWOS SUMMARY
NATIONAL WEATHER SERVICE MISSOULA MT
543 PM MDT SUN AUG 31 2014

Montana AWOS Reports

LAUREL      |K6S8 312335Z AUTO 00000KT 40SM 22/06 A2986 RMK AO1 T02170056
ROUNDUP     |KRPX 312335Z AUTO 33006KT 40SM 21/04 A2979 RMK AO1 T02110039






000
SXUS55 KMSO 312323
OSOMSO
MONTANA AWOS SUMMARY
NATIONAL WEATHER SERVICE MISSOULA MT
523 PM MDT SUN AUG 31 2014

Montana AWOS Reports

LAUREL      |K6S8 312315Z AUTO 21005KT 40SM 22/04 A2987 RMK AO1 T02170044
ROUNDUP     |KRPX 312315Z AUTO 29004KT 40SM 21/03 A2979 RMK AO1 T02110028
MALTA       |KM75 312315Z AUTO 24004KT 40SM 22/07 A2972 RMK AO1 T02170072






000
SXUS55 KMSO 312303
OSOMSO
MONTANA AWOS SUMMARY
NATIONAL WEATHER SERVICE MISSOULA MT
503 PM MDT SUN AUG 31 2014

Montana AWOS Reports

LAUREL      |K6S8 312255Z AUTO 00000KT 40SM 21/04 A2987 RMK AO1 T02060044
ROUNDUP     |KRPX 312255Z AUTO 28006KT 40SM 21/03 A2978 RMK AO1 T02060033
MALTA       |KM75 312255Z AUTO 00000KT 40SM 20/09 A2973 RMK AO1 T02000094
SCOBEY      |K9S2 312255Z AUTO 07008KT 40SM 20/07 A2973 RMK AO1 T02000072
MALTA       |KM75 312255Z AUTO 00000KT 40SM 20/09 A2973 RMK AO1 T02000094
PLAINS      |KS34 312255Z AUTO 21010G17KT 40SM 19/04 A2997 RMK AO1 T01890039






000
SXUS55 KMSO 312243
OSOMSO
MONTANA AWOS SUMMARY
NATIONAL WEATHER SERVICE MISSOULA MT
443 PM MDT SUN AUG 31 2014

Montana AWOS Reports

LAUREL      |K6S8 312235Z AUTO 00000KT 40SM 21/05 A2987 RMK AO1 T02060050
ROUNDUP     |KRPX 312235Z AUTO 29012G17KT 40SM 20/04 A2979 RMK AO1 T02000039






000
SXUS55 KMSO 312223
OSOMSO
MONTANA AWOS SUMMARY
NATIONAL WEATHER SERVICE MISSOULA MT
422 PM MDT SUN AUG 31 2014

Montana AWOS Reports

LAUREL      |K6S8 312215Z AUTO 00000KT 40SM 20/06 A2987 RMK AO1 T02000061
MALTA       |KM75 312215Z AUTO 22012G19KT 40SM 23/08 A2972 RMK AO1 T02330083
ROUNDUP     |KRPX 312215Z AUTO 30015G22KT 40SM 21/06 A2978 RMK AO1 T02110056






000
SXUS55 KMSO 312153
OSOMSO
MONTANA AWOS SUMMARY
NATIONAL WEATHER SERVICE MISSOULA MT
353 PM MDT SUN AUG 31 2014

Montana AWOS Reports

LAUREL      |K6S8 312135Z AUTO 27004KT 40SM 18/08 A2987 RMK AO1 T01830078
ROUNDUP     |KRPX 312135Z AUTO 29010G19KT 40SM 22/03 A2978 RMK AO1 T02220033






000
SXUS55 KMSO 312133
OSOMSO
MONTANA AWOS SUMMARY
NATIONAL WEATHER SERVICE MISSOULA MT
333 PM MDT SUN AUG 31 2014

Montana AWOS Reports

LAUREL      |K6S8 312115Z AUTO 29008KT 4SM 16/09 A2987 RMK AO1 T01610094
ROUNDUP     |KRPX 312115Z AUTO 28010G17KT 40SM 21/03 A2977 RMK AO1 T02110028
MALTA       |KM75 312115Z AUTO 26013G20KT 40SM 23/07 A2973 RMK AO1 T02280067






000
SXUS55 KMSO 312103
OSOMSO
MONTANA AWOS SUMMARY
NATIONAL WEATHER SERVICE MISSOULA MT
303 PM MDT SUN AUG 31 2014

Montana AWOS Reports

LAUREL      |K6S8 312055Z AUTO 29011G15KT 40SM 21/04 A2987 RMK AO1 T02110044
ROUNDUP     |KRPX 312055Z AUTO 29005KT 40SM 21/04 A2978 RMK AO1 T02110039
MALTA       |KM75 312055Z AUTO 26010G20KT 40SM 22/07 A2973 RMK AO1 T02220067
SCOBEY      |K9S2 312055Z AUTO 29009G16KT 10SM 22/07 A2973 RMK AO1 T02170067
PLAINS      |KS34 312055Z AUTO 21011G21KT 40SM 19/06 A2998 RMK AO1 T01940056






000
SXUS55 KMSO 312053
OSOMSO
MONTANA AWOS SUMMARY
NATIONAL WEATHER SERVICE MISSOULA MT
252 PM MDT SUN AUG 31 2014

Montana AWOS Reports

MALTA       |KM75 311955Z AUTO 25016G23KT 40SM 22/07 A2975 RMK AO1 T02220067






000
SXUS55 KMSO 312043
OSOMSO
MONTANA AWOS SUMMARY
NATIONAL WEATHER SERVICE MISSOULA MT
243 PM MDT SUN AUG 31 2014

Montana AWOS Reports

LAUREL      |K6S8 312035Z AUTO 28006KT 40SM 21/05 A2987 RMK AO1 T02060050
ROUNDUP     |KRPX 312035Z AUTO 29007KT 40SM 21/03 A2978 RMK AO1 T02110028






000
SXUS55 KMSO 312033
OSOMSO
MONTANA AWOS SUMMARY
NATIONAL WEATHER SERVICE MISSOULA MT
233 PM MDT SUN AUG 31 2014

Montana AWOS Reports

ROUNDUP     |KRPX 312015Z AUTO 00000KT 40SM 21/03 A2979 RMK AO1 T02110033






000
SXUS55 KMSO 312023
OSOMSO
MONTANA AWOS SUMMARY
NATIONAL WEATHER SERVICE MISSOULA MT
223 PM MDT SUN AUG 31 2014

Montana AWOS Reports

LAUREL      |K6S8 312015Z AUTO 00000KT 40SM 22/06 A2987 RMK AO1 T02220061
MALTA       |KM75 312015Z AUTO 27014G20KT 40SM 22/06 A2974 RMK AO1 T02170061






000
SXUS55 KMSO 312013
OSOMSO
MONTANA AWOS SUMMARY
NATIONAL WEATHER SERVICE MISSOULA MT
213 PM MDT SUN AUG 31 2014

Montana AWOS Reports

PLAINS      |KS34 311955Z AUTO 22013G20KT 40SM 21/07 A2997 RMK AO1 T02060067






000
SXUS55 KMSO 312003
OSOMSO
MONTANA AWOS SUMMARY
NATIONAL WEATHER SERVICE MISSOULA MT
203 PM MDT SUN AUG 31 2014

Montana AWOS Reports

LAUREL      |K6S8 311955Z AUTO 26005KT 40SM 20/04 A2987 RMK AO1 T02000044
ROUNDUP     |KRPX 311955Z AUTO 28006KT 40SM 21/03 A2979 RMK AO1 T02110028
SCOBEY      |K9S2 311955Z AUTO 26011G17KT 10SM 21/06 A2973 RMK AO1 T02110061






000
SXUS55 KMSO 311943
OSOMSO
MONTANA AWOS SUMMARY
NATIONAL WEATHER SERVICE MISSOULA MT
143 PM MDT SUN AUG 31 2014

Montana AWOS Reports

LAUREL      |K6S8 311935Z AUTO 25005KT 40SM 22/05 A2987 RMK AO1 T02170050
ROUNDUP     |KRPX 311935Z AUTO 00000KT 40SM 20/02 A2979 RMK AO1 T02000017






000
SXUS55 KMSO 311924
OSOMSO
MONTANA AWOS SUMMARY
NATIONAL WEATHER SERVICE MISSOULA MT
123 PM MDT SUN AUG 31 2014

Montana AWOS Reports

LAUREL      |K6S8 311915Z AUTO 31007KT 40SM 21/05 A2988 RMK AO1 T02060050
ROUNDUP     |KRPX 311915Z AUTO 00000KT 40SM 21/03 A2979 RMK AO1 T02060033






000
SXUS55 KMSO 311903
OSOMSO
MONTANA AWOS SUMMARY
NATIONAL WEATHER SERVICE MISSOULA MT
103 PM MDT SUN AUG 31 2014

Montana AWOS Reports

PLAINS      |KS34 311855Z AUTO 23013G17KT 40SM 18/06 A2997 RMK AO1 T01830061
LAUREL      |K6S8 311855Z AUTO 29007KT 40SM 21/06 A2987 RMK AO1 T02060056
ROUNDUP     |KRPX 311855Z AUTO 30007KT 40SM 20/01 A2979 RMK AO1 T02000011
SCOBEY      |K9S2 311855Z AUTO 25005KT 1 1/2SM 21/08 A2974 RMK AO1 T02060083
MALTA       |KM75 311855Z AUTO 28014G18KT 40SM 22/06 A2974 RMK AO1 T02170061






000
SXUS55 KMSO 311853
OSOMSO
MONTANA AWOS SUMMARY
NATIONAL WEATHER SERVICE MISSOULA MT
1253 PM MDT SUN AUG 31 2014

Montana AWOS Reports

LAUREL      |K6S8 311835Z AUTO 28013KT 40SM 21/04 A2987 RMK AO1 T02110044
ROUNDUP     |KRPX 311835Z AUTO 31009G14KT 40SM 19/02 A2979 RMK AO1 T01940022






000
SXUS55 KMSO 311823
OSOMSO
MONTANA AWOS SUMMARY
NATIONAL WEATHER SERVICE MISSOULA MT
1223 PM MDT SUN AUG 31 2014

Montana AWOS Reports

LAUREL      |K6S8 311815Z AUTO 32008KT 40SM 22/04 A2987 RMK AO1 T02170039
ROUNDUP     |KRPX 311815Z AUTO 32010KT 40SM 19/02 A2979 RMK AO1 T01890022
MALTA       |KM75 311815Z AUTO 28017G21KT 40SM 21/04 A2974 RMK AO1 T02110044






000
SXUS55 KMSO 311803
OSOMSO
MONTANA AWOS SUMMARY
NATIONAL WEATHER SERVICE MISSOULA MT
1203 PM MDT SUN AUG 31 2014

Montana AWOS Reports

LAUREL      |K6S8 311755Z AUTO 31006KT 40SM 21/04 A2987 RMK AO1 T02110039
ROUNDUP     |KRPX 311755Z AUTO 33012KT 40SM 19/03 A2979 RMK AO1 T01940033
PLAINS      |KS34 311755Z AUTO 18007KT 40SM 18/07 A2997 RMK AO1 T01780067
SCOBEY      |K9S2 311755Z AUTO 22005KT 40SM 21/08 A2975 RMK AO1 T02060078
MALTA       |KM75 311755Z AUTO 25015G19KT 40SM 21/06 A2975 RMK AO1 T02060061






000
SXUS55 KMSO 311753
OSOMSO
MONTANA AWOS SUMMARY
NATIONAL WEATHER SERVICE MISSOULA MT
1152 AM MDT SUN AUG 31 2014

Montana AWOS Reports

LAUREL      |K6S8 311735Z AUTO 27010KT 40SM 21/04 A2988 RMK AO1 T02110039
ROUNDUP     |KRPX 311735Z AUTO 00000KT 40SM 21/03 A2978 RMK AO1 T02060033






000
SXUS55 KMSO 311723
OSOMSO
MONTANA AWOS SUMMARY
NATIONAL WEATHER SERVICE MISSOULA MT
1122 AM MDT SUN AUG 31 2014

Montana AWOS Reports

LAUREL      |K6S8 311715Z AUTO 27009G13KT 40SM 21/05 A2988 RMK AO1 T02060050
ROUNDUP     |KRPX 311715Z AUTO 00000KT 40SM 21/04 A2979 RMK AO1 T02060039






000
SXUS55 KMSO 311703
OSOMSO
MONTANA AWOS SUMMARY
NATIONAL WEATHER SERVICE MISSOULA MT
1103 AM MDT SUN AUG 31 2014

Montana AWOS Reports

LAUREL      |K6S8 311655Z AUTO 32008KT 40SM 19/04 A2988 RMK AO1 T01940044
SCOBEY      |K9S2 311655Z AUTO 00000KT 40SM 19/10 A2974 RMK AO1 T01890100
ROUNDUP     |KRPX 311655Z AUTO 32005KT 40SM 20/05 A2979 RMK AO1 T02000050
PLAINS      |KS34 311655Z AUTO 00000KT 40SM 16/09 A2996 RMK AO1 T01610094
MALTA       |KM75 311655Z AUTO 27009G14KT 40SM 19/09 A2974 RMK AO1 T01890094






000
SXUS55 KMSO 311643
OSOMSO
MONTANA AWOS SUMMARY
NATIONAL WEATHER SERVICE MISSOULA MT
1043 AM MDT SUN AUG 31 2014

Montana AWOS Reports

LAUREL      |K6S8 311635Z AUTO 28010KT 40SM 20/04 A2988 RMK AO1 T02000039
ROUNDUP     |KRPX 311635Z AUTO 27011G15KT 40SM 19/03 A2978 RMK AO1 T01890028
MALTA       |KM75 311635Z AUTO 31008KT 40SM 18/10 A2974 RMK AO1 T01830100






000
SXUS55 KMSO 311623
OSOMSO
MONTANA AWOS SUMMARY
NATIONAL WEATHER SERVICE MISSOULA MT
1023 AM MDT SUN AUG 31 2014

Montana AWOS Reports

LAUREL      |K6S8 311615Z AUTO VRB04KT 40SM 19/06 A2988 RMK AO1 T01890056
ROUNDUP     |KRPX 311615Z AUTO 20006KT 40SM 17/08 A2979 RMK AO1 T01720078






000
SXUS55 KMSO 311603
OSOMSO
MONTANA AWOS SUMMARY
NATIONAL WEATHER SERVICE MISSOULA MT
1003 AM MDT SUN AUG 31 2014

Montana AWOS Reports

LAUREL      |K6S8 311555Z AUTO 30007KT 40SM 19/05 A2987 RMK AO1 T01890050
ROUNDUP     |KRPX 311555Z AUTO 20004KT 40SM 16/08 A2978 RMK AO1 T01610078
SCOBEY      |K9S2 311555Z AUTO 00000KT 40SM 16/10 A2975 RMK AO1 T01560100
PLAINS      |KS34 311555Z AUTO 00000KT 40SM 16/11 A2995 RMK AO1 T01560106
MALTA       |KM75 311555Z AUTO 33005KT 40SM 16/11 A2975 RMK AO1 T01610111






000
SXUS55 KMSO 311553
OSOMSO
MONTANA AWOS SUMMARY
NATIONAL WEATHER SERVICE MISSOULA MT
953 AM MDT SUN AUG 31 2014

Montana AWOS Reports

LAUREL      |K6S8 311535Z AUTO 25009G14KT 40SM 19/06 A2987 RMK AO1 T01890061
ROUNDUP     |KRPX 311535Z AUTO 00000KT 40SM 16/09 A2978 RMK AO1 T01560089






000
SXUS55 KMSO 311533
OSOMSO
MONTANA AWOS SUMMARY
NATIONAL WEATHER SERVICE MISSOULA MT
933 AM MDT SUN AUG 31 2014

Montana AWOS Reports

MALTA       |KM75 311455Z AUTO 00000KT 40SM 13/11 A2974 RMK AO1 T01330106






000
SXUS55 KMSO 311523
OSOMSO
MONTANA AWOS SUMMARY
NATIONAL WEATHER SERVICE MISSOULA MT
923 AM MDT SUN AUG 31 2014

Montana AWOS Reports

LAUREL      |K6S8 311515Z AUTO 22005KT 40SM 18/07 A2987 RMK AO1 T01830072
ROUNDUP     |KRPX 311515Z AUTO 20008KT 40SM 15/08 A2978 RMK AO1 T01500078
MALTA       |KM75 311515Z AUTO 00000KT 40SM 14/11 A2975 RMK AO1 T01390106






000
SXUS55 KMSO 311513
OSOMSO
MONTANA AWOS SUMMARY
NATIONAL WEATHER SERVICE MISSOULA MT
913 AM MDT SUN AUG 31 2014

Montana AWOS Reports

PLAINS      |KS34 311455Z AUTO 00000KT 40SM 14/11 A2995 RMK AO1 T01390106






000
SXUS55 KMSO 311503
OSOMSO
MONTANA AWOS SUMMARY
NATIONAL WEATHER SERVICE MISSOULA MT
903 AM MDT SUN AUG 31 2014

Montana AWOS Reports

LAUREL      |K6S8 311455Z AUTO 21006KT 40SM 16/08 A2987 RMK AO1 T01610083
SCOBEY      |K9S2 311455Z AUTO 00000KT 40SM 12/09 A2974 RMK AO1 T01170094
ROUNDUP     |KRPX 311455Z AUTO 20007KT 40SM 14/08 A2977 RMK AO1 T01440083






000
SXUS55 KMSO 311453
OSOMSO
MONTANA AWOS SUMMARY
NATIONAL WEATHER SERVICE MISSOULA MT
853 AM MDT SUN AUG 31 2014

Montana AWOS Reports

LAUREL      |K6S8 311435Z AUTO 20004KT 40SM 14/08 A2986 RMK AO1 T01390078
ROUNDUP     |KRPX 311435Z AUTO 20007KT 40SM 14/08 A2977 RMK AO1 T01390083
MALTA       |KM75 311435Z AUTO 00000KT 40SM 12/10 A2974 RMK AO1 T01220100






000
SXUS55 KMSO 311423
OSOMSO
MONTANA AWOS SUMMARY
NATIONAL WEATHER SERVICE MISSOULA MT
823 AM MDT SUN AUG 31 2014

Montana AWOS Reports

LAUREL      |K6S8 311415Z AUTO 21004KT 40SM 14/08 A2986 RMK AO1 T01390083
ROUNDUP     |KRPX 311415Z AUTO 20006KT 40SM 13/08 A2976 RMK AO1 T01330078
MALTA       |KM75 311415Z AUTO 00000KT 40SM 12/09 A2974 RMK AO1 T01170094






000
SXUS55 KMSO 311413
OSOMSO
MONTANA AWOS SUMMARY
NATIONAL WEATHER SERVICE MISSOULA MT
813 AM MDT SUN AUG 31 2014

Montana AWOS Reports

LAUREL      |K6S8 311355Z AUTO 21005KT 40SM 13/07 A2985 RMK AO1 T01330072
ROUNDUP     |KRPX 311355Z AUTO 20009KT 40SM 13/08 A2976 RMK AO1 T01280078
MALTA       |KM75 311355Z AUTO 34004KT 40SM 12/09 A2974 RMK AO1 T01170094
PLAINS      |KS34 311355Z AUTO 00000KT 40SM 12/09 A2994 RMK AO1 T01220094






000
SXUS55 KMSO 311403
OSOMSO
MONTANA AWOS SUMMARY
NATIONAL WEATHER SERVICE MISSOULA MT
802 AM MDT SUN AUG 31 2014

Montana AWOS Reports

SCOBEY      |K9S2 311355Z AUTO 00000KT 40SM 10/08 A2974 RMK AO1 T01000078






000
SXUS55 KMSO 311353
OSOMSO
MONTANA AWOS SUMMARY
NATIONAL WEATHER SERVICE MISSOULA MT
752 AM MDT SUN AUG 31 2014

Montana AWOS Reports

LAUREL      |K6S8 311335Z AUTO 20004KT 40SM 13/08 A2985 RMK AO1 T01330078
ROUNDUP     |KRPX 311335Z AUTO 00000KT 40SM 12/07 A2975 RMK AO1 T01220072






000
SXUS55 KMSO 311333
OSOMSO
MONTANA AWOS SUMMARY
NATIONAL WEATHER SERVICE MISSOULA MT
733 AM MDT SUN AUG 31 2014

Montana AWOS Reports

LAUREL      |K6S8 311315Z AUTO 00000KT 40SM 13/07 A2984 RMK AO1 T01280072
ROUNDUP     |KRPX 311315Z AUTO 00000KT 40SM 12/07 A2975 RMK AO1 T01220072






000
SXUS55 KMSO 311323
OSOMSO
MONTANA AWOS SUMMARY
NATIONAL WEATHER SERVICE MISSOULA MT
723 AM MDT SUN AUG 31 2014

Montana AWOS Reports

MALTA       |KM75 311315Z AUTO 00000KT 40SM 11/09 A2973 RMK AO1 T01110089






000
SXUS55 KMSO 311313
OSOMSO
MONTANA AWOS SUMMARY
NATIONAL WEATHER SERVICE MISSOULA MT
713 AM MDT SUN AUG 31 2014

Montana AWOS Reports

MALTA       |KM75 311255Z AUTO 00000KT 40SM 11/08 A2972 RMK AO1 T01060083






000
SXUS55 KMSO 311303
OSOMSO
MONTANA AWOS SUMMARY
NATIONAL WEATHER SERVICE MISSOULA MT
703 AM MDT SUN AUG 31 2014

Montana AWOS Reports

LAUREL      |K6S8 311255Z AUTO 00000KT 40SM 13/08 A2984 RMK AO1 T01280078
ROUNDUP     |KRPX 311255Z AUTO 00000KT 40SM 12/07 A2974 RMK AO1 T01220072
PLAINS      |KS34 311255Z AUTO 00000KT 40SM 12/09 A2992 RMK AO1 T01220089
SCOBEY      |K9S2 311255Z AUTO 00000KT 40SM 08/06 A2973 RMK AO1 T00830061






000
SXUS55 KMSO 311253
OSOMSO
MONTANA AWOS SUMMARY
NATIONAL WEATHER SERVICE MISSOULA MT
652 AM MDT SUN AUG 31 2014

Montana AWOS Reports

LAUREL      |K6S8 311235Z AUTO 21004KT 40SM 13/07 A2984 RMK AO1 T01280072
ROUNDUP     |KRPX 311235Z AUTO 00000KT 40SM 13/06 A2974 RMK AO1 T01330061






000
SXUS55 KMSO 311233
OSOMSO
MONTANA AWOS SUMMARY
NATIONAL WEATHER SERVICE MISSOULA MT
633 AM MDT SUN AUG 31 2014

Montana AWOS Reports

LAUREL      |K6S8 311215Z AUTO 00000KT 40SM 12/07 A2983 RMK AO1 T01220072
ROUNDUP     |KRPX 311215Z AUTO 25004KT 40SM 14/07 A2973 RMK AO1 T01390067






000
SXUS55 KMSO 311213
OSOMSO
MONTANA AWOS SUMMARY
NATIONAL WEATHER SERVICE MISSOULA MT
613 AM MDT SUN AUG 31 2014

Montana AWOS Reports

MALTA       |KM75 311155Z AUTO 00000KT 40SM 11/09 A2971 RMK AO1 T01110089






000
SXUS55 KMSO 311203
OSOMSO
MONTANA AWOS SUMMARY
NATIONAL WEATHER SERVICE MISSOULA MT
602 AM MDT SUN AUG 31 2014

Montana AWOS Reports

LAUREL      |K6S8 311155Z AUTO 21004KT 40SM 12/07 A2983 RMK AO1 T01220072






000
SXUS55 KMSO 311143
OSOMSO
MONTANA AWOS SUMMARY
NATIONAL WEATHER SERVICE MISSOULA MT
543 AM MDT SUN AUG 31 2014

Montana AWOS Reports

LAUREL      |K6S8 311135Z AUTO 00000KT 40SM 12/07 A2982 RMK AO1 T01220072
MALTA       |KM75 311135Z AUTO 00000KT 40SM 11/09 A2970 RMK AO1 T01110089
ROUNDUP     |KRPX 311135Z AUTO 00000KT 40SM 13/08 A2972 RMK AO1 T01280078






000
SXUS55 KMSO 311133
OSOMSO
MONTANA AWOS SUMMARY
NATIONAL WEATHER SERVICE MISSOULA MT
533 AM MDT SUN AUG 31 2014

Montana AWOS Reports

LAUREL      |K6S8 311115Z AUTO 00000KT 40SM 12/07 A2982 RMK AO1 T01170067
ROUNDUP     |KRPX 311115Z AUTO 00000KT 40SM 13/08 A2972 RMK AO1 T01280078
MALTA       |KM75 311115Z AUTO 00000KT 40SM 12/09 A2970 RMK AO1 T01170094
MALTA       |KM75 311055Z AUTO 00000KT 40SM 11/09 A2970 RMK AO1 T01110089






000
SXUS55 KMSO 311113
OSOMSO
MONTANA AWOS SUMMARY
NATIONAL WEATHER SERVICE MISSOULA MT
512 AM MDT SUN AUG 31 2014

Montana AWOS Reports

LAUREL      |K6S8 311055Z AUTO 00000KT 40SM 12/07 A2982 RMK AO1 T01220072
ROUNDUP     |KRPX 311055Z AUTO 00000KT 40SM 12/08 A2972 RMK AO1 T01220083
SCOBEY      |K9S2 311055Z AUTO 00000KT 25SM 09/06 A2970 RMK AO1 T00940056
PLAINS      |KS34 311055Z AUTO 00000KT 40SM 12/09 A2990 RMK AO1 T01220094






000
SXUS55 KMSO 311103
OSOMSO
MONTANA AWOS SUMMARY
NATIONAL WEATHER SERVICE MISSOULA MT
503 AM MDT SUN AUG 31 2014

Montana AWOS Reports

MALTA       |KM75 311055Z AUTO 00000KT 40SM 11/09 A2970 RMK AO1 T01110089






000
SXUS55 KMSO 311053
OSOMSO
MONTANA AWOS SUMMARY
NATIONAL WEATHER SERVICE MISSOULA MT
453 AM MDT SUN AUG 31 2014

Montana AWOS Reports

LAUREL      |K6S8 311035Z AUTO 00000KT 40SM 12/07 A2982 RMK AO1 T01220072
ROUNDUP     |KRPX 311035Z AUTO 00000KT 40SM 13/09 A2972 RMK AO1 T01280089






000
SXUS55 KMSO 311043
OSOMSO
MONTANA AWOS SUMMARY
NATIONAL WEATHER SERVICE MISSOULA MT
442 AM MDT SUN AUG 31 2014

Montana AWOS Reports

MALTA       |KM75 311035Z AUTO 00000KT 40SM 11/09 A2970 RMK AO1 T01110089






000
SXUS55 KMSO 311023
OSOMSO
MONTANA AWOS SUMMARY
NATIONAL WEATHER SERVICE MISSOULA MT
423 AM MDT SUN AUG 31 2014

Montana AWOS Reports

MALTA       |KM75 311015Z AUTO 00000KT 40SM 11/09 A2970 RMK AO1 T01110089
LAUREL      |K6S8 311015Z AUTO 00000KT 40SM 13/08 A2982 RMK AO1 T01280078
ROUNDUP     |KRPX 311015Z AUTO 00000KT 40SM 13/09 A2972 RMK AO1 T01280089






000
SXUS55 KMSO 311003
OSOMSO
MONTANA AWOS SUMMARY
NATIONAL WEATHER SERVICE MISSOULA MT
403 AM MDT SUN AUG 31 2014

Montana AWOS Reports

LAUREL      |K6S8 310955Z AUTO 00000KT 40SM 13/08 A2982 RMK AO1 T01280078
ROUNDUP     |KRPX 310955Z AUTO 20007KT 40SM 13/09 A2972 RMK AO1 T01280089
MALTA       |KM75 310955Z AUTO 00000KT 40SM 12/09 A2970 RMK AO1 T01170089
SCOBEY      |K9S2 310955Z AUTO 00000KT 40SM 11/08 A2970 RMK AO1 T01110078
PLAINS      |KS34 310955Z AUTO 00000KT 40SM 13/09 A2990 RMK AO1 T01280094






000
SXUS55 KMSO 310953
OSOMSO
MONTANA AWOS SUMMARY
NATIONAL WEATHER SERVICE MISSOULA MT
352 AM MDT SUN AUG 31 2014

Montana AWOS Reports

LAUREL      |K6S8 310935Z AUTO 00000KT 40SM 12/07 A2981 RMK AO1 T01220067
ROUNDUP     |KRPX 310935Z AUTO 00000KT 40SM 13/09 A2972 RMK AO1 T01280089
MALTA       |KM75 310935Z AUTO 00000KT 40SM 12/09 A2970 RMK AO1 T01220094






000
SXUS55 KMSO 310924
OSOMSO
MONTANA AWOS SUMMARY
NATIONAL WEATHER SERVICE MISSOULA MT
323 AM MDT SUN AUG 31 2014

Montana AWOS Reports

LAUREL      |K6S8 310915Z AUTO 00000KT 40SM 12/07 A2982 RMK AO1 T01220067
ROUNDUP     |KRPX 310915Z AUTO 21005KT 40SM 13/08 A2972 RMK AO1 T01280083






000
SXUS55 KMSO 310904
OSOMSO
MONTANA AWOS SUMMARY
NATIONAL WEATHER SERVICE MISSOULA MT
303 AM MDT SUN AUG 31 2014

Montana AWOS Reports

LAUREL      |K6S8 310855Z AUTO 00000KT 40SM 13/07 A2982 RMK AO1 T01280072
ROUNDUP     |KRPX 310855Z AUTO 21006KT 40SM 13/09 A2972 RMK AO1 T01280089
MALTA       |KM75 310855Z AUTO 00000KT 40SM 13/09 A2971 RMK AO1 T01280094
SCOBEY      |K9S2 310855Z AUTO 00000KT 1SM 11/08 A2970 RMK AO1 T01110078
PLAINS      |KS34 310855Z AUTO 40SM 13/09 A2989 RMK AO1 T01280089
MALTA       |KM75 310855Z AUTO 00000KT 40SM 13/09 A2971 RMK AO1 T01280094






000
SXUS55 KMSO 310843
OSOMSO
MONTANA AWOS SUMMARY
NATIONAL WEATHER SERVICE MISSOULA MT
243 AM MDT SUN AUG 31 2014

Montana AWOS Reports

LAUREL      |K6S8 310835Z AUTO 00000KT 40SM 13/07 A2981 RMK AO1 T01330072
ROUNDUP     |KRPX 310835Z AUTO 00000KT 40SM 13/08 A2972 RMK AO1 T01280083
MALTA       |KM75 310835Z AUTO 00000KT 40SM 13/10 A2971 RMK AO1 T01280100






000
SXUS55 KMSO 310823
OSOMSO
MONTANA AWOS SUMMARY
NATIONAL WEATHER SERVICE MISSOULA MT
223 AM MDT SUN AUG 31 2014

Montana AWOS Reports

LAUREL      |K6S8 310815Z AUTO 24004KT 40SM 14/07 A2982 RMK AO1 T01440072
ROUNDUP     |KRPX 310815Z AUTO 00000KT 40SM 13/09 A2972 RMK AO1 T01280089
MALTA       |KM75 310815Z AUTO 00000KT 40SM 13/10 A2971 RMK AO1 T01280100






000
SXUS55 KMSO 310813
OSOMSO
MONTANA AWOS SUMMARY
NATIONAL WEATHER SERVICE MISSOULA MT
213 AM MDT SUN AUG 31 2014

Montana AWOS Reports

PLAINS      |KS34 310755Z AUTO 00000KT 7SM 14/08 A2989 RMK AO1 T01390083






000
SXUS55 KMSO 310803
OSOMSO
MONTANA AWOS SUMMARY
NATIONAL WEATHER SERVICE MISSOULA MT
203 AM MDT SUN AUG 31 2014

Montana AWOS Reports

MALTA       |KM75 310755Z AUTO 00000KT 40SM 13/10 A2971 RMK AO1 T01280100
LAUREL      |K6S8 310755Z AUTO 25004KT 40SM 14/07 A2982 RMK AO1 T01440072
ROUNDUP     |KRPX 310755Z AUTO 00000KT 40SM 13/08 A2973 RMK AO1 T01280083






000
SXUS55 KMSO 310753
OSOMSO
MONTANA AWOS SUMMARY
NATIONAL WEATHER SERVICE MISSOULA MT
153 AM MDT SUN AUG 31 2014

Montana AWOS Reports

LAUREL      |K6S8 310735Z AUTO 28004KT 40SM 12/07 A2982 RMK AO1 T01220072
ROUNDUP     |KRPX 310735Z AUTO 00000KT 40SM 13/09 A2973 RMK AO1 T01280089






000
SXUS55 KMSO 310743
OSOMSO
MONTANA AWOS SUMMARY
NATIONAL WEATHER SERVICE MISSOULA MT
142 AM MDT SUN AUG 31 2014

Montana AWOS Reports

MALTA       |KM75 310735Z AUTO 00000KT 40SM 13/10 A2971 RMK AO1 T01280100






000
SXUS55 KMSO 310723
OSOMSO
MONTANA AWOS SUMMARY
NATIONAL WEATHER SERVICE MISSOULA MT
123 AM MDT SUN AUG 31 2014

Montana AWOS Reports

LAUREL      |K6S8 310715Z AUTO 18004KT 40SM 13/08 A2982 RMK AO1 T01280078
MALTA       |KM75 310715Z AUTO 00000KT 40SM 14/11 A2970 RMK AO1 T01390106
ROUNDUP     |KRPX 310715Z AUTO 00000KT 40SM 13/08 A2973 RMK AO1 T01280083






000
SXUS55 KMSO 310713
OSOMSO
MONTANA AWOS SUMMARY
NATIONAL WEATHER SERVICE MISSOULA MT
113 AM MDT SUN AUG 31 2014

Montana AWOS Reports

LAUREL      |K6S8 310655Z AUTO 00000KT 25SM 12/07 A2983 RMK AO1 T01220072
ROUNDUP     |KRPX 310655Z AUTO 00000KT 40SM 13/08 A2973 RMK AO1 T01330083
SCOBEY      |K9S2 310655Z AUTO 00000KT 25SM 14/11 A2972 RMK AO1 T01390106
PLAINS      |KS34 310655Z AUTO 00000KT 40SM 14/06 A2986 RMK AO1 T01390061
MALTA       |KM75 310655Z AUTO 00000KT 40SM 13/10 A2970 RMK AO1 T01330100






000
SXUS55 KMSO 310653
OSOMSO
MONTANA AWOS SUMMARY
NATIONAL WEATHER SERVICE MISSOULA MT
1252 AM MDT SUN AUG 31 2014

Montana AWOS Reports

LAUREL      |K6S8 310635Z AUTO 00000KT 25SM 12/07 A2982 RMK AO1 T01220067
MALTA       |KM75 310635Z AUTO 00000KT 40SM 14/11 A2971 RMK AO1 T01390106






000
SXUS55 KMSO 310643
OSOMSO
MONTANA AWOS SUMMARY
NATIONAL WEATHER SERVICE MISSOULA MT
1243 AM MDT SUN AUG 31 2014

Montana AWOS Reports

ROUNDUP     |KRPX 310635Z AUTO 00000KT 40SM 13/08 A2972 RMK AO1 T01280083






000
SXUS55 KMSO 310623
OSOMSO
MONTANA AWOS SUMMARY
NATIONAL WEATHER SERVICE MISSOULA MT
1223 AM MDT SUN AUG 31 2014

Montana AWOS Reports

LAUREL      |K6S8 310615Z AUTO 00000KT 25SM 13/07 A2981 RMK AO1 T01280072
ROUNDUP     |KRPX 310615Z AUTO 00000KT 40SM 13/08 A2972 RMK AO1 T01280083
MALTA       |KM75 310615Z AUTO 00000KT 40SM 14/11 A2971 RMK AO1 T01390106






000
SXUS55 KMSO 310614
OSOMSO
MONTANA AWOS SUMMARY
NATIONAL WEATHER SERVICE MISSOULA MT
1213 AM MDT SUN AUG 31 2014

Montana AWOS Reports

SCOBEY      |K9S2 310555Z AUTO 00000KT 25SM 13/10 A2973 RMK AO1 T01330100






000
SXUS55 KMSO 310553
OSOMSO
MONTANA AWOS SUMMARY
NATIONAL WEATHER SERVICE MISSOULA MT
1152 PM MDT SAT AUG 30 2014

Montana AWOS Reports

LAUREL      |K6S8 310535Z AUTO 00000KT 25SM 13/07 A2982 RMK AO1 T01280067
ROUNDUP     |KRPX 310535Z AUTO 00000KT 40SM 14/08 A2972 RMK AO1 T01390078
MALTA       |KM75 310535Z AUTO 00000KT 40SM 15/11 A2970 RMK AO1 T01500106






000
SXUS55 KMSO 310534
OSOMSO
MONTANA AWOS SUMMARY
NATIONAL WEATHER SERVICE MISSOULA MT
1133 PM MDT SAT AUG 30 2014

Montana AWOS Reports

SCOBEY      |K9S2 310455Z AUTO 00000KT 25SM 13/09 A2974 RMK AO1 T01280094
PLAINS      |KS34 310455Z AUTO 00000KT 40SM 15/07 A2986 RMK AO1 T01500067






000
SXUS55 KMSO 310523
OSOMSO
MONTANA AWOS SUMMARY
NATIONAL WEATHER SERVICE MISSOULA MT
1123 PM MDT SAT AUG 30 2014

Montana AWOS Reports

LAUREL      |K6S8 310515Z AUTO 00000KT 25SM 13/07 A2982 RMK AO1 T01330072
ROUNDUP     |KRPX 310515Z AUTO 00000KT 40SM 14/08 A2972 RMK AO1 T01390078
MALTA       |KM75 310515Z AUTO 00000KT 40SM 16/11 A2970 RMK AO1 T01560111






000
SXUS55 KMSO 310513
OSOMSO
MONTANA AWOS SUMMARY
NATIONAL WEATHER SERVICE MISSOULA MT
1112 PM MDT SAT AUG 30 2014

Montana AWOS Reports

MALTA       |KM75 310455Z AUTO 00000KT 40SM 16/11 A2970 RMK AO1 T01560106






000
SXUS55 KMSO 310503
OSOMSO
MONTANA AWOS SUMMARY
NATIONAL WEATHER SERVICE MISSOULA MT
1103 PM MDT SAT AUG 30 2014

Montana AWOS Reports

LAUREL      |K6S8 310455Z AUTO 00000KT 25SM 14/07 A2983 RMK AO1 T01390072
ROUNDUP     |KRPX 310455Z AUTO 00000KT 40SM 14/08 A2972 RMK AO1 T01390078
MALTA       |KM75 310455Z AUTO 00000KT 40SM 16/11 A2970 RMK AO1 T01560106






000
SXUS55 KMSO 310443
OSOMSO
MONTANA AWOS SUMMARY
NATIONAL WEATHER SERVICE MISSOULA MT
1043 PM MDT SAT AUG 30 2014

Montana AWOS Reports

LAUREL      |K6S8 310435Z AUTO 00000KT 25SM 14/07 A2983 RMK AO1 T01440072
ROUNDUP     |KRPX 310435Z AUTO 20008KT 40SM 14/08 A2971 RMK AO1 T01390083
MALTA       |KM75 310435Z AUTO 33008KT 40SM 16/11 A2969 RMK AO1 T01610111






000
SXUS55 KMSO 310423
OSOMSO
MONTANA AWOS SUMMARY
NATIONAL WEATHER SERVICE MISSOULA MT
1022 PM MDT SAT AUG 30 2014

Montana AWOS Reports

LAUREL      |K6S8 310415Z AUTO 00000KT 40SM 14/07 A2983 RMK AO1 T01440072
ROUNDUP     |KRPX 310415Z AUTO 19006KT 40SM 14/09 A2971 RMK AO1 T01390089
MALTA       |KM75 310415Z AUTO 33012KT 40SM 17/11 A2968 RMK AO1 T01670111






000
SXUS55 KMSO 310413
OSOMSO
MONTANA AWOS SUMMARY
NATIONAL WEATHER SERVICE MISSOULA MT
1013 PM MDT SAT AUG 30 2014

Montana AWOS Reports

LAUREL      |K6S8 310355Z AUTO 00000KT 40SM 15/07 A2983 RMK AO1 T01500067
SCOBEY      |K9S2 310355Z AUTO 00000KT 2SM 13/09 A2972 RMK AO1 T01280089






000
SXUS55 KMSO 310403
OSOMSO
MONTANA AWOS SUMMARY
NATIONAL WEATHER SERVICE MISSOULA MT
1003 PM MDT SAT AUG 30 2014

Montana AWOS Reports

ROUNDUP     |KRPX 310355Z AUTO 00000KT 40SM 14/09 A2971 RMK AO1 T01440094
MALTA       |KM75 310355Z AUTO 31009G13KT 40SM 17/11 A2969 RMK AO1 T01670111






000
SXUS55 KMSO 310343
OSOMSO
MONTANA AWOS SUMMARY
NATIONAL WEATHER SERVICE MISSOULA MT
943 PM MDT SAT AUG 30 2014

Montana AWOS Reports

LAUREL      |K6S8 310335Z AUTO 00000KT 25SM 15/07 A2984 RMK AO1 T01500072
ROUNDUP     |KRPX 310335Z AUTO 00000KT 40SM 15/09 A2972 RMK AO1 T01500094
MALTA       |KM75 310335Z AUTO 28008KT 40SM 18/12 A2969 RMK AO1 T01780117






000
SXUS55 KMSO 310323
OSOMSO
MONTANA AWOS SUMMARY
NATIONAL WEATHER SERVICE MISSOULA MT
923 PM MDT SAT AUG 30 2014

Montana AWOS Reports

LAUREL      |K6S8 310315Z AUTO 27005KT 25SM 16/07 A2983 RMK AO1 T01560072
ROUNDUP     |KRPX 310315Z AUTO 20009KT 40SM 15/09 A2972 RMK AO1 T01500089
MALTA       |KM75 310315Z AUTO 27004KT 40SM 19/12 A2970 RMK AO1 T01890117






000
SXUS55 KMSO 310303
OSOMSO
MONTANA AWOS SUMMARY
NATIONAL WEATHER SERVICE MISSOULA MT
903 PM MDT SAT AUG 30 2014

Montana AWOS Reports

LAUREL      |K6S8 310255Z AUTO 00000KT 25SM 15/08 A2983 RMK AO1 T01500083
ROUNDUP     |KRPX 310255Z AUTO 19006KT 40SM 16/09 A2972 RMK AO1 T01560094






000
SXUS55 KMSO 310243
OSOMSO
MONTANA AWOS SUMMARY
NATIONAL WEATHER SERVICE MISSOULA MT
843 PM MDT SAT AUG 30 2014

Montana AWOS Reports

LAUREL      |K6S8 310235Z AUTO 00000KT 25SM 16/08 A2983 RMK AO1 T01560078
ROUNDUP     |KRPX 310235Z AUTO 19007KT 40SM 16/09 A2972 RMK AO1 T01610094
MALTA       |KM75 310235Z AUTO 00000KT 40SM 19/12 A2969 RMK AO1 T01940122






000
SXUS55 KMSO 310223
OSOMSO
MONTANA AWOS SUMMARY
NATIONAL WEATHER SERVICE MISSOULA MT
823 PM MDT SAT AUG 30 2014

Montana AWOS Reports

ROUNDUP     |KRPX 310215Z AUTO 20005KT 40SM 17/09 A2973 RMK AO1 T01670094
MALTA       |KM75 310215Z AUTO 00000KT 40SM 21/12 A2968 RMK AO1 T02060122






000
SXUS55 KMSO 310213
OSOMSO
MONTANA AWOS SUMMARY
NATIONAL WEATHER SERVICE MISSOULA MT
813 PM MDT SAT AUG 30 2014

Montana AWOS Reports

SCOBEY      |K9S2 310155Z AUTO 00000KT 25SM 15/11 A2972 RMK AO1 T01500106






000
SXUS55 KMSO 310203
OSOMSO
MONTANA AWOS SUMMARY
NATIONAL WEATHER SERVICE MISSOULA MT
802 PM MDT SAT AUG 30 2014

Montana AWOS Reports

LAUREL      |K6S8 310155Z AUTO 00000KT 25SM 17/08 A2983 RMK AO1 T01670083
ROUNDUP     |KRPX 310155Z AUTO 00000KT 40SM 17/09 A2974 RMK AO1 T01720094
MALTA       |KM75 310155Z AUTO 00000KT 40SM 21/13 A2967 RMK AO1 T02110133
PLAINS      |KS34 310155Z AUTO 21005KT 40SM 22/04 A2984 RMK AO1 T02170044






000
SXUS55 KMSO 310143
OSOMSO
MONTANA AWOS SUMMARY
NATIONAL WEATHER SERVICE MISSOULA MT
743 PM MDT SAT AUG 30 2014

Montana AWOS Reports

LAUREL      |K6S8 310135Z AUTO 00000KT 40SM 17/08 A2984 RMK AO1 T01720083
ROUNDUP     |KRPX 310135Z AUTO 24004KT 40SM 18/09 A2974 RMK AO1 T01780094






000
SXUS55 KMSO 310133
OSOMSO
MONTANA AWOS SUMMARY
NATIONAL WEATHER SERVICE MISSOULA MT
733 PM MDT SAT AUG 30 2014

Montana AWOS Reports

MALTA       |KM75 310115Z AUTO 00000KT 40SM 21/13 A2967 RMK AO1 T02110133






000
SXUS55 KMSO 310123
OSOMSO
MONTANA AWOS SUMMARY
NATIONAL WEATHER SERVICE MISSOULA MT
723 PM MDT SAT AUG 30 2014

Montana AWOS Reports

LAUREL      |K6S8 310115Z AUTO 00000KT 25SM 17/08 A2984 RMK AO1 T01720083
ROUNDUP     |KRPX 310115Z AUTO 24007KT 40SM 18/09 A2973 RMK AO1 T01830094






000
SXUS55 KMSO 310113
OSOMSO
MONTANA AWOS SUMMARY
NATIONAL WEATHER SERVICE MISSOULA MT
713 PM MDT SAT AUG 30 2014

Montana AWOS Reports

MALTA       |KM75 310055Z AUTO 00000KT 40SM 21/13 A2967 RMK AO1 T02110128






000
SXUS55 KMSO 310104
OSOMSO
MONTANA AWOS SUMMARY
NATIONAL WEATHER SERVICE MISSOULA MT
703 PM MDT SAT AUG 30 2014

Montana AWOS Reports

LAUREL      |K6S8 310055Z AUTO 27006KT 25SM 18/08 A2983 RMK AO1 T01780083
ROUNDUP     |KRPX 310055Z AUTO 00000KT 40SM 19/11 A2973 RMK AO1 T01890106
MALTA       |KM75 310055Z AUTO 00000KT 40SM 21/13 A2967 RMK AO1 T02110128
SCOBEY      |K9S2 310055Z AUTO 15004KT 40SM 17/12 A2972 RMK AO1 T01670117
PLAINS      |KS34 310055Z AUTO 00000KT 40SM 23/03 A2984 RMK AO1 T02280033






000
SXUS55 KMSO 310043
OSOMSO
MONTANA AWOS SUMMARY
NATIONAL WEATHER SERVICE MISSOULA MT
643 PM MDT SAT AUG 30 2014

Montana AWOS Reports

LAUREL      |K6S8 310035Z AUTO 29005KT 15SM 17/09 A2983 RMK AO1 T01720089
ROUNDUP     |KRPX 310035Z AUTO 23009KT 40SM 19/09 A2972 RMK AO1 T01890094






000
SXUS55 KMSO 310023
OSOMSO
MONTANA AWOS SUMMARY
NATIONAL WEATHER SERVICE MISSOULA MT
623 PM MDT SAT AUG 30 2014

Montana AWOS Reports

LAUREL      |K6S8 310015Z AUTO 27006KT 15SM 18/09 A2984 RMK AO1 T01830089
ROUNDUP     |KRPX 310015Z AUTO 22009G16KT 40SM 19/10 A2973 RMK AO1 T01940100






000
SXUS55 KMSO 310014
OSOMSO
MONTANA AWOS SUMMARY
NATIONAL WEATHER SERVICE MISSOULA MT
613 PM MDT SAT AUG 30 2014

Montana AWOS Reports

PLAINS      |KS34 302355Z AUTO VRB04KT 40SM 23/03 A2984 RMK AO1 T02280033






000
SXUS55 KMSO 310004
OSOMSO
MONTANA AWOS SUMMARY
NATIONAL WEATHER SERVICE MISSOULA MT
603 PM MDT SAT AUG 30 2014

Montana AWOS Reports

LAUREL      |K6S8 302355Z AUTO 00000KT 40SM 18/11 A2983 RMK AO1 T01830111
ROUNDUP     |KRPX 302355Z AUTO 24013G18KT 40SM 20/11 A2973 RMK AO1 T02000106
MALTA       |KM75 302355Z AUTO 00000KT 40SM 23/13 A2966 RMK AO1 T02330128






000
SXUS55 KMSO 302343
OSOMSO
MONTANA AWOS SUMMARY
NATIONAL WEATHER SERVICE MISSOULA MT
543 PM MDT SAT AUG 30 2014

Montana AWOS Reports

LAUREL      |K6S8 302335Z AUTO 00000KT 40SM 18/11 A2984 RMK AO1 T01830111
ROUNDUP     |KRPX 302335Z AUTO 24016G23KT 40SM 22/11 A2972 RMK AO1 T02170106






000
SXUS55 KMSO 302323
OSOMSO
MONTANA AWOS SUMMARY
NATIONAL WEATHER SERVICE MISSOULA MT
523 PM MDT SAT AUG 30 2014

Montana AWOS Reports

LAUREL      |K6S8 302315Z AUTO 40SM 18/11 A2984 RMK AO1 T01830106
ROUNDUP     |KRPX 302315Z AUTO 00000KT 40SM 22/11 A2972 RMK AO1 T02170106






000
SXUS55 KMSO 302313
OSOMSO
MONTANA AWOS SUMMARY
NATIONAL WEATHER SERVICE MISSOULA MT
513 PM MDT SAT AUG 30 2014

Montana AWOS Reports

SCOBEY      |K9S2 302255Z AUTO 12005KT 40SM 17/12 A2972 RMK AO1 T01670122
MALTA       |KM75 302255Z AUTO 00000KT 40SM 24/11 A2967 RMK AO1 T02390106
PLAINS      |KS34 302155Z AUTO 26006KT 40SM 24/04 A2985 RMK AO1 T02440039
PLAINS      |KS34 302255Z AUTO 26006KT 40SM 24/03 A2984 RMK AO1 T02390033






000
SXUS55 KMSO 302303
OSOMSO
MONTANA AWOS SUMMARY
NATIONAL WEATHER SERVICE MISSOULA MT
503 PM MDT SAT AUG 30 2014

Montana AWOS Reports

LAUREL      |K6S8 302255Z AUTO 40SM 18/10 A2982 RMK AO1 T01830100
ROUNDUP     |KRPX 302255Z AUTO 17004KT 40SM 21/11 A2972 RMK AO1 T02110111






000
SXUS55 KMSO 302243
OSOMSO
MONTANA AWOS SUMMARY
NATIONAL WEATHER SERVICE MISSOULA MT
443 PM MDT SAT AUG 30 2014

Montana AWOS Reports

LAUREL      |K6S8 302235Z AUTO 00000KT 40SM 18/10 A2982 RMK AO1 T01830100
ROUNDUP     |KRPX 302235Z AUTO 10004KT 40SM 21/11 A2972 RMK AO1 T02060111
MALTA       |KM75 302235Z AUTO 00000KT 40SM 24/09 A2967 RMK AO1 T02440094






000
SXUS55 KMSO 302223
OSOMSO
MONTANA AWOS SUMMARY
NATIONAL WEATHER SERVICE MISSOULA MT
423 PM MDT SAT AUG 30 2014

Montana AWOS Reports

LAUREL      |K6S8 302215Z AUTO 00000KT 40SM 19/11 A2982 RMK AO1 T01890111
ROUNDUP     |KRPX 302215Z AUTO 00000KT 40SM 21/11 A2973 RMK AO1 T02060111
MALTA       |KM75 302215Z AUTO 22004KT 40SM 24/09 A2968 RMK AO1 T02390094






000
SXUS55 KMSO 302213
OSOMSO
MONTANA AWOS SUMMARY
NATIONAL WEATHER SERVICE MISSOULA MT
413 PM MDT SAT AUG 30 2014

Montana AWOS Reports

SCOBEY      |K9S2 302155Z AUTO 14005KT 25SM 16/12 A2974 RMK AO1 T01610122






000
SXUS55 KMSO 302203
OSOMSO
MONTANA AWOS SUMMARY
NATIONAL WEATHER SERVICE MISSOULA MT
403 PM MDT SAT AUG 30 2014

Montana AWOS Reports

LAUREL      |K6S8 302155Z AUTO 21005KT 40SM 18/11 A2983 RMK AO1 T01830106
ROUNDUP     |KRPX 302155Z AUTO 00000KT 40SM 20/11 A2973 RMK AO1 T02000111
MALTA       |KM75 302155Z AUTO 22005KT 40SM 23/11 A2968 RMK AO1 T02330111






000
SXUS55 KMSO 302143
OSOMSO
MONTANA AWOS SUMMARY
NATIONAL WEATHER SERVICE MISSOULA MT
343 PM MDT SAT AUG 30 2014

Montana AWOS Reports

LAUREL      |K6S8 302135Z AUTO 17004KT 40SM 18/11 A2982 RMK AO1 T01830111
ROUNDUP     |KRPX 302135Z AUTO 00000KT 40SM 20/11 A2973 RMK AO1 T02000106






000
SXUS55 KMSO 302123
OSOMSO
MONTANA AWOS SUMMARY
NATIONAL WEATHER SERVICE MISSOULA MT
323 PM MDT SAT AUG 30 2014

Montana AWOS Reports

SCOBEY      |K9S2 302055Z AUTO 00000KT 5SM 16/12 A2975 RMK AO1 T01560117
LAUREL      |K6S8 302115Z AUTO 00000KT 40SM 18/11 A2983 RMK AO1 T01780111
ROUNDUP     |KRPX 302115Z AUTO 00000KT 40SM 20/11 A2974 RMK AO1 T02000106
MALTA       |KM75 301955Z AUTO 21006KT 40SM 22/12 A2970 RMK AO1 T02170122






000
SXUS55 KMSO 302104
OSOMSO
MONTANA AWOS SUMMARY
NATIONAL WEATHER SERVICE MISSOULA MT
303 PM MDT SAT AUG 30 2014

Montana AWOS Reports

LAUREL      |K6S8 302055Z AUTO 20004KT 40SM 18/11 A2984 RMK AO1 T01780111
ROUNDUP     |KRPX 302055Z AUTO 00000KT 40SM 20/11 A2974 RMK AO1 T02000106
MALTA       |KM75 302055Z AUTO 22006KT 40SM 23/11 A2969 RMK AO1 T02330111
PLAINS      |KS34 302055Z AUTO 31005KT 40SM 24/04 A2986 RMK AO1 T02390039






000
SXUS55 KMSO 302053
OSOMSO
MONTANA AWOS SUMMARY
NATIONAL WEATHER SERVICE MISSOULA MT
253 PM MDT SAT AUG 30 2014

Montana AWOS Reports

LAUREL      |K6S8 302035Z AUTO 21006KT 15SM 17/11 A2985 RMK AO1 T01720111
ROUNDUP     |KRPX 302035Z AUTO 00000KT 40SM 20/11 A2974 RMK AO1 T02000106
MALTA       |KM75 302035Z AUTO 21008KT 40SM 23/11 A2969 RMK AO1 T02280111






000
SXUS55 KMSO 302023
OSOMSO
MONTANA AWOS SUMMARY
NATIONAL WEATHER SERVICE MISSOULA MT
223 PM MDT SAT AUG 30 2014

Montana AWOS Reports

LAUREL      |K6S8 302015Z AUTO 21005KT 25SM 18/11 A2985 RMK AO1 T01780111
ROUNDUP     |KRPX 302015Z AUTO 00000KT 40SM 20/11 A2975 RMK AO1 T02000106






000
SXUS55 KMSO 302003
OSOMSO
MONTANA AWOS SUMMARY
NATIONAL WEATHER SERVICE MISSOULA MT
203 PM MDT SAT AUG 30 2014

Montana AWOS Reports

LAUREL      |K6S8 301955Z AUTO 21004KT 40SM 18/10 A2985 RMK AO1 T01830100
ROUNDUP     |KRPX 301955Z AUTO 00000KT 40SM 20/10 A2975 RMK AO1 T02000100
PLAINS      |KS34 301955Z AUTO 24011G21KT 40SM 24/04 A2986 RMK AO1 T02390039
SCOBEY      |K9S2 301955Z AUTO 00000KT 5SM 15/11 A2975 RMK AO1 T01500111






000
SXUS55 KMSO 301943
OSOMSO
MONTANA AWOS SUMMARY
NATIONAL WEATHER SERVICE MISSOULA MT
143 PM MDT SAT AUG 30 2014

Montana AWOS Reports

LAUREL      |K6S8 301935Z AUTO 00000KT 40SM 18/09 A2984 RMK AO1 T01830094
ROUNDUP     |KRPX 301935Z AUTO 00000KT 40SM 20/11 A2975 RMK AO1 T02000106
MALTA       |KM75 301935Z AUTO 21006KT 40SM 21/13 A2970 RMK AO1 T02110128






000
SXUS55 KMSO 301924
OSOMSO
MONTANA AWOS SUMMARY
NATIONAL WEATHER SERVICE MISSOULA MT
123 PM MDT SAT AUG 30 2014

Montana AWOS Reports

LAUREL      |K6S8 301915Z AUTO 00000KT 40SM 18/09 A2985 RMK AO1 T01830089
ROUNDUP     |KRPX 301915Z AUTO 00000KT 40SM 19/11 A2975 RMK AO1 T01940106






000
SXUS55 KMSO 301903
OSOMSO
MONTANA AWOS SUMMARY
NATIONAL WEATHER SERVICE MISSOULA MT
103 PM MDT SAT AUG 30 2014

Montana AWOS Reports

LAUREL      |K6S8 301855Z AUTO 00000KT 40SM 18/09 A2985 RMK AO1 T01830094
ROUNDUP     |KRPX 301855Z AUTO 00000KT 40SM 19/11 A2975 RMK AO1 T01940106
MALTA       |KM75 301855Z AUTO 00000KT 40SM 19/12 A2970 RMK AO1 T01940122






000
SXUS55 KMSO 301843
OSOMSO
MONTANA AWOS SUMMARY
NATIONAL WEATHER SERVICE MISSOULA MT
1243 PM MDT SAT AUG 30 2014

Montana AWOS Reports

LAUREL      |K6S8 301835Z AUTO 00000KT 40SM 19/09 A2985 RMK AO1 T01890094
ROUNDUP     |KRPX 301835Z AUTO 04004KT 40SM 19/11 A2976 RMK AO1 T01890106
MALTA       |KM75 301835Z AUTO 00000KT 40SM 19/13 A2971 RMK AO1 T01940128






000
SXUS55 KMSO 301823
OSOMSO
MONTANA AWOS SUMMARY
NATIONAL WEATHER SERVICE MISSOULA MT
1223 PM MDT SAT AUG 30 2014

Montana AWOS Reports

LAUREL      |K6S8 301815Z AUTO 00000KT 40SM 19/10 A2984 RMK AO1 T01890100
ROUNDUP     |KRPX 301815Z AUTO 05005KT 40SM 18/11 A2976 RMK AO1 T01780106
MALTA       |KM75 301815Z AUTO 00000KT 40SM 19/12 A2970 RMK AO1 T01940122






000
SXUS55 KMSO 301803
OSOMSO
MONTANA AWOS SUMMARY
NATIONAL WEATHER SERVICE MISSOULA MT
1203 PM MDT SAT AUG 30 2014

Montana AWOS Reports

LAUREL      |K6S8 301755Z AUTO 00000KT 40SM 18/09 A2985 RMK AO1 T01830094
ROUNDUP     |KRPX 301755Z AUTO 00000KT 40SM 17/10 A2977 RMK AO1 T01670100
MALTA       |KM75 301755Z AUTO 00000KT 40SM 20/13 A2971 RMK AO1 T02000128
PLAINS      |KS34 301755Z AUTO 18010G19KT 40SM 23/04 A2987 RMK AO1 T02330039
SCOBEY      |K9S2 301755Z AUTO 17005KT 5SM 16/11 A2977 RMK AO1 T01560106






000
SXUS55 KMSO 301743
OSOMSO
MONTANA AWOS SUMMARY
NATIONAL WEATHER SERVICE MISSOULA MT
1143 AM MDT SAT AUG 30 2014

Montana AWOS Reports

LAUREL      |K6S8 301735Z AUTO 00000KT 40SM 18/11 A2985 RMK AO1 T01780111
ROUNDUP     |KRPX 301735Z AUTO 00000KT 40SM 16/10 A2978 RMK AO1 T01610100
MALTA       |KM75 301735Z AUTO 21006KT 40SM 19/12 A2971 RMK AO1 T01940122






000
SXUS55 KMSO 301723
OSOMSO
MONTANA AWOS SUMMARY
NATIONAL WEATHER SERVICE MISSOULA MT
1123 AM MDT SAT AUG 30 2014

Montana AWOS Reports

LAUREL      |K6S8 301715Z AUTO 00000KT 40SM 18/10 A2985 RMK AO1 T01830100
ROUNDUP     |KRPX 301715Z AUTO 00000KT 40SM 16/11 A2978 RMK AO1 T01560106






000
SXUS55 KMSO 301713
OSOMSO
MONTANA AWOS SUMMARY
NATIONAL WEATHER SERVICE MISSOULA MT
1112 AM MDT SAT AUG 30 2014

Montana AWOS Reports

MALTA       |KM75 301655Z AUTO 00000KT 10SM 18/13 A2974 RMK AO1 T01830128






000
SXUS55 KMSO 301703
OSOMSO
MONTANA AWOS SUMMARY
NATIONAL WEATHER SERVICE MISSOULA MT
1103 AM MDT SAT AUG 30 2014

Montana AWOS Reports

LAUREL      |K6S8 301655Z AUTO 00000KT 40SM 18/09 A2985 RMK AO1 T01780089
ROUNDUP     |KRPX 301655Z AUTO 00000KT 40SM 16/11 A2977 RMK AO1 T01560106
SCOBEY      |K9S2 301655Z AUTO 18014G35KT 25SM 16/10 A2976 RMK AO1 T01560100






000
SXUS55 KMSO 301653
OSOMSO
MONTANA AWOS SUMMARY
NATIONAL WEATHER SERVICE MISSOULA MT
1053 AM MDT SAT AUG 30 2014

Montana AWOS Reports

LAUREL      |K6S8 301635Z AUTO 33006KT 40SM 17/09 A2985 RMK AO1 T01670094
ROUNDUP     |KRPX 301635Z AUTO 00000KT 15SM 16/11 A2977 RMK AO1 T01560106






000
SXUS55 KMSO 301644
OSOMSO
MONTANA AWOS SUMMARY
NATIONAL WEATHER SERVICE MISSOULA MT
1043 AM MDT SAT AUG 30 2014

Montana AWOS Reports

MALTA       |KM75 301635Z AUTO 00000KT 40SM 18/13 A2973 RMK AO1 T01830128






000
SXUS55 KMSO 301623
OSOMSO
MONTANA AWOS SUMMARY
NATIONAL WEATHER SERVICE MISSOULA MT
1023 AM MDT SAT AUG 30 2014

Montana AWOS Reports

LAUREL      |K6S8 301615Z AUTO 30004KT 40SM 16/09 A2986 RMK AO1 T01610094
ROUNDUP     |KRPX 301615Z AUTO 00000KT 15SM 16/10 A2979 RMK AO1 T01610100






000
SXUS55 KMSO 301603
OSOMSO
MONTANA AWOS SUMMARY
NATIONAL WEATHER SERVICE MISSOULA MT
1003 AM MDT SAT AUG 30 2014

Montana AWOS Reports

LAUREL      |K6S8 301555Z AUTO 30007KT 15SM 17/10 A2986 RMK AO1 T01670100
ROUNDUP     |KRPX 301555Z AUTO 00000KT 40SM 17/09 A2979 RMK AO1 T01720089
MALTA       |KM75 301555Z AUTO 00000KT 40SM 18/13 A2972 RMK AO1 T01830133
SCOBEY      |K9S2 301555Z AUTO 15008KT 25SM 15/10 A2971 RMK AO1 T01500100
PLAINS      |KS34 301555Z AUTO 21007KT 40SM 21/05 A2988 RMK AO1 T02110050






000
SXUS55 KMSO 301553
OSOMSO
MONTANA AWOS SUMMARY
NATIONAL WEATHER SERVICE MISSOULA MT
953 AM MDT SAT AUG 30 2014

Montana AWOS Reports

LAUREL      |K6S8 301535Z AUTO 30011G17KT 40SM 17/09 A2986 RMK AO1 T01720089
ROUNDUP     |KRPX 301535Z AUTO 28008KT 40SM 17/09 A2978 RMK AO1 T01720094
MALTA       |KM75 301535Z AUTO 00000KT 40SM 18/13 A2973 RMK AO1 T01780133






000
SXUS55 KMSO 301523
OSOMSO
MONTANA AWOS SUMMARY
NATIONAL WEATHER SERVICE MISSOULA MT
923 AM MDT SAT AUG 30 2014

Montana AWOS Reports

LAUREL      |K6S8 301515Z AUTO 27008KT 40SM 17/09 A2987 RMK AO1 T01720094
ROUNDUP     |KRPX 301515Z AUTO 00000KT 40SM 16/12 A2978 RMK AO1 T01610122
MALTA       |KM75 301515Z AUTO 00000KT 40SM 18/13 A2973 RMK AO1 T01780133






000
SXUS55 KMSO 301503
OSOMSO
MONTANA AWOS SUMMARY
NATIONAL WEATHER SERVICE MISSOULA MT
903 AM MDT SAT AUG 30 2014

Montana AWOS Reports

LAUREL      |K6S8 301455Z AUTO 00000KT 25SM 17/11 A2988 RMK AO1 T01670111
ROUNDUP     |KRPX 301455Z AUTO 00000KT 40SM 17/12 A2977 RMK AO1 T01720117
SCOBEY      |K9S2 301455Z AUTO 15006KT 40SM 15/09 A2978 RMK AO1 T01500089
PLAINS      |KS34 301455Z AUTO 21007KT 40SM 19/05 A2988 RMK AO1 T01890050
MALTA       |KM75 301455Z AUTO 00000KT 40SM 17/13 A2973 RMK AO1 T01720128






000
SXUS55 KMSO 301443
OSOMSO
MONTANA AWOS SUMMARY
NATIONAL WEATHER SERVICE MISSOULA MT
843 AM MDT SAT AUG 30 2014

Montana AWOS Reports

LAUREL      |K6S8 301435Z AUTO 00000KT 40SM 17/11 A2986 RMK AO1 T01720106
ROUNDUP     |KRPX 301435Z AUTO 24007KT 40SM 16/12 A2975 RMK AO1 T01610122
MALTA       |KM75 301435Z AUTO 00000KT 40SM 17/13 A2972 RMK AO1 T01720128






000
SXUS55 KMSO 301424
OSOMSO
MONTANA AWOS SUMMARY
NATIONAL WEATHER SERVICE MISSOULA MT
823 AM MDT SAT AUG 30 2014

Montana AWOS Reports

LAUREL      |K6S8 301415Z AUTO 27004KT 40SM 17/11 A2984 RMK AO1 T01670106
ROUNDUP     |KRPX 301415Z AUTO 17007KT 40SM 16/12 A2975 RMK AO1 T01560117
MALTA       |KM75 301415Z AUTO 00000KT 40SM 17/13 A2972 RMK AO1 T01670128






000
SXUS55 KMSO 301413
OSOMSO
MONTANA AWOS SUMMARY
NATIONAL WEATHER SERVICE MISSOULA MT
813 AM MDT SAT AUG 30 2014

Montana AWOS Reports

MALTA       |KM75 301355Z AUTO 00000KT 40SM 16/12 A2972 RMK AO1 T01610122






000
SXUS55 KMSO 301403
OSOMSO
MONTANA AWOS SUMMARY
NATIONAL WEATHER SERVICE MISSOULA MT
803 AM MDT SAT AUG 30 2014

Montana AWOS Reports

LAUREL      |K6S8 301355Z AUTO 00000KT 40SM 16/11 A2982 RMK AO1 T01560111
ROUNDUP     |KRPX 301355Z AUTO 00000KT 40SM 16/12 A2974 RMK AO1 T01560117
SCOBEY      |K9S2 301355Z AUTO 13015G19KT 25SM 14/08 A2978 RMK AO1 T01390083
PLAINS      |KS34 301355Z AUTO 00000KT 40SM 18/07 A2988 RMK AO1 T01780072






000
SXUS55 KMSO 301353
OSOMSO
MONTANA AWOS SUMMARY
NATIONAL WEATHER SERVICE MISSOULA MT
752 AM MDT SAT AUG 30 2014

Montana AWOS Reports

LAUREL      |K6S8 301335Z AUTO 00000KT 40SM 15/11 A2981 RMK AO1 T01500106
ROUNDUP     |KRPX 301335Z AUTO 00000KT 40SM 14/11 A2973 RMK AO1 T01440111
MALTA       |KM75 301335Z AUTO 00000KT 40SM 16/12 A2971 RMK AO1 T01610122






000
SXUS55 KMSO 301323
OSOMSO
MONTANA AWOS SUMMARY
NATIONAL WEATHER SERVICE MISSOULA MT
722 AM MDT SAT AUG 30 2014

Montana AWOS Reports

LAUREL      |K6S8 301315Z AUTO 00000KT 40SM 14/09 A2980 RMK AO1 T01390094
ROUNDUP     |KRPX 301315Z AUTO 27006KT 40SM 14/12 A2974 RMK AO1 T01440117






000
SXUS55 KMSO 301303
OSOMSO
MONTANA AWOS SUMMARY
NATIONAL WEATHER SERVICE MISSOULA MT
703 AM MDT SAT AUG 30 2014

Montana AWOS Reports

LAUREL      |K6S8 301255Z AUTO 00000KT 40SM 14/09 A2980 RMK AO1 T01390094
ROUNDUP     |KRPX 301255Z AUTO 25004KT 10SM 14/11 A2974 RMK AO1 T01440111
MALTA       |KM75 301255Z AUTO 00000KT 40SM 18/12 A2970 RMK AO1 T01780122
SCOBEY      |K9S2 301255Z AUTO 13007KT 25SM 13/08 A2980 RMK AO1 T01280078
PLAINS      |KS34 301255Z AUTO 00000KT 40SM 18/07 A2987 RMK AO1 T01780072






000
SXUS55 KMSO 301244
OSOMSO
MONTANA AWOS SUMMARY
NATIONAL WEATHER SERVICE MISSOULA MT
643 AM MDT SAT AUG 30 2014

Montana AWOS Reports

LAUREL      |K6S8 301235Z AUTO 00000KT 40SM 14/09 A2981 RMK AO1 T01390094
ROUNDUP     |KRPX 301235Z AUTO 00000KT 40SM 14/11 A2973 RMK AO1 T01390111
MALTA       |KM75 301235Z AUTO 17008KT 070V270 40SM 17/12 A2969 RMK AO1 T01720117






000
SXUS55 KMSO 301223
OSOMSO
MONTANA AWOS SUMMARY
NATIONAL WEATHER SERVICE MISSOULA MT
623 AM MDT SAT AUG 30 2014

Montana AWOS Reports

LAUREL      |K6S8 301215Z AUTO 00000KT 40SM 14/09 A2981 RMK AO1 T01390094
ROUNDUP     |KRPX 301215Z AUTO 00000KT 40SM 14/11 A2972 RMK AO1 T01390111
MALTA       |KM75 301215Z AUTO 27005KT 40SM 18/12 A2969 RMK AO1 T01780122






000
SXUS55 KMSO 301213
OSOMSO
MONTANA AWOS SUMMARY
NATIONAL WEATHER SERVICE MISSOULA MT
613 AM MDT SAT AUG 30 2014

Montana AWOS Reports

MALTA       |KM75 301155Z AUTO 07007KT 40SM 17/12 A2968 RMK AO1 T01720117






000
SXUS55 KMSO 301203
OSOMSO
MONTANA AWOS SUMMARY
NATIONAL WEATHER SERVICE MISSOULA MT
602 AM MDT SAT AUG 30 2014

Montana AWOS Reports

LAUREL      |K6S8 301155Z AUTO 00000KT 40SM 14/09 A2980 RMK AO1 T01440094
ROUNDUP     |KRPX 301155Z AUTO 00000KT 40SM 14/11 A2973 RMK AO1 T01390106
PLAINS      |KS34 301155Z AUTO 00000KT 40SM 17/07 A2987 RMK AO1 T01720067






000
SXUS55 KMSO 301153
OSOMSO
MONTANA AWOS SUMMARY
NATIONAL WEATHER SERVICE MISSOULA MT
552 AM MDT SAT AUG 30 2014

Montana AWOS Reports

MALTA       |KM75 301055Z AUTO 12011G19KT 40SM 18/11 A2973 RMK AO1 T01780111






000
SXUS55 KMSO 301143
OSOMSO
MONTANA AWOS SUMMARY
NATIONAL WEATHER SERVICE MISSOULA MT
543 AM MDT SAT AUG 30 2014

Montana AWOS Reports

LAUREL      |K6S8 301135Z AUTO 00000KT 40SM 14/10 A2980 RMK AO1 T01440100
ROUNDUP     |KRPX 301135Z AUTO 00000KT 40SM 14/11 A2973 RMK AO1 T01390106
MALTA       |KM75 301135Z AUTO 00000KT 40SM 18/12 A2971 RMK AO1 T01780117






000
SXUS55 KMSO 301123
OSOMSO
MONTANA AWOS SUMMARY
NATIONAL WEATHER SERVICE MISSOULA MT
523 AM MDT SAT AUG 30 2014

Montana AWOS Reports

LAUREL      |K6S8 301115Z AUTO 00000KT 40SM 14/09 A2981 RMK AO1 T01390094
ROUNDUP     |KRPX 301115Z AUTO 00000KT 40SM 13/10 A2973 RMK AO1 T01330100
MALTA       |KM75 301115Z AUTO 13007KT 40SM 18/12 A2971 RMK AO1 T01780117






000
SXUS55 KMSO 301103
OSOMSO
MONTANA AWOS SUMMARY
NATIONAL WEATHER SERVICE MISSOULA MT
503 AM MDT SAT AUG 30 2014

Montana AWOS Reports

LAUREL      |K6S8 301055Z AUTO 00000KT 40SM 14/09 A2981 RMK AO1 T01390094
ROUNDUP     |KRPX 301055Z AUTO 00000KT 40SM 13/10 A2974 RMK AO1 T01330100
SCOBEY      |K9S2 301055Z AUTO 13009KT 25SM 13/07 A2982 RMK AO1 T01280072






000
SXUS55 KMSO 301053
OSOMSO
MONTANA AWOS SUMMARY
NATIONAL WEATHER SERVICE MISSOULA MT
452 AM MDT SAT AUG 30 2014

Montana AWOS Reports

LAUREL      |K6S8 301035Z AUTO 00000KT 40SM 14/09 A2981 RMK AO1 T01390094
ROUNDUP     |KRPX 301035Z AUTO 00000KT 40SM 14/11 A2975 RMK AO1 T01390106
MALTA       |KM75 301035Z AUTO 00000KT 40SM 18/11 A2974 RMK AO1 T01780111






000
SXUS55 KMSO 301023
OSOMSO
MONTANA AWOS SUMMARY
NATIONAL WEATHER SERVICE MISSOULA MT
423 AM MDT SAT AUG 30 2014

Montana AWOS Reports

LAUREL      |K6S8 301015Z AUTO 00000KT 40SM 13/09 A2982 RMK AO1 T01330089
ROUNDUP     |KRPX 301015Z AUTO 00000KT 40SM 13/10 A2976 RMK AO1 T01330100
MALTA       |KM75 301015Z AUTO 00000KT 40SM 18/11 A2975 RMK AO1 T01780111






000
SXUS55 KMSO 301013
OSOMSO
MONTANA AWOS SUMMARY
NATIONAL WEATHER SERVICE MISSOULA MT
413 AM MDT SAT AUG 30 2014

Montana AWOS Reports

SCOBEY      |K9S2 300955Z AUTO 13014G19KT 25SM 13/08 A2983 RMK AO1 T01330078
PLAINS      |KS34 300955Z AUTO 18009G13KT 40SM 20/06 A2986 RMK AO1 T02000061






000
SXUS55 KMSO 301003
OSOMSO
MONTANA AWOS SUMMARY
NATIONAL WEATHER SERVICE MISSOULA MT
403 AM MDT SAT AUG 30 2014

Montana AWOS Reports

LAUREL      |K6S8 300955Z AUTO 00000KT 40SM 13/09 A2982 RMK AO1 T01330089
ROUNDUP     |KRPX 300955Z AUTO 00000KT 40SM 13/10 A2976 RMK AO1 T01330100
MALTA       |KM75 300955Z AUTO 00000KT 40SM 17/11 A2973 RMK AO1 T01720111






000
SXUS55 KMSO 300943
OSOMSO
MONTANA AWOS SUMMARY
NATIONAL WEATHER SERVICE MISSOULA MT
343 AM MDT SAT AUG 30 2014

Montana AWOS Reports

LAUREL      |K6S8 300935Z AUTO 00000KT 40SM 14/10 A2983 RMK AO1 T01440100
ROUNDUP     |KRPX 300935Z AUTO 00000KT 40SM 13/10 A2976 RMK AO1 T01330100
MALTA       |KM75 300935Z AUTO 00000KT 40SM 17/11 A2974 RMK AO1 T01720111






000
SXUS55 KMSO 300923
OSOMSO
MONTANA AWOS SUMMARY
NATIONAL WEATHER SERVICE MISSOULA MT
322 AM MDT SAT AUG 30 2014

Montana AWOS Reports

LAUREL      |K6S8 300915Z AUTO 00000KT 40SM 15/10 A2983 RMK AO1 T01500100
ROUNDUP     |KRPX 300915Z AUTO 00000KT 40SM 14/10 A2975 RMK AO1 T01440100
MALTA       |KM75 300915Z AUTO 00000KT 40SM 17/12 A2974 RMK AO1 T01720117






000
SXUS55 KMSO 300913
OSOMSO
MONTANA AWOS SUMMARY
NATIONAL WEATHER SERVICE MISSOULA MT
313 AM MDT SAT AUG 30 2014

Montana AWOS Reports

PLAINS      |KS34 300855Z AUTO 17006KT 40SM 21/05 A2985 RMK AO1 T02060050
SCOBEY      |K9S2 300855Z AUTO 13009KT 25SM 13/07 A2987 RMK AO1 T01280072
MALTA       |KM75 300855Z AUTO 00000KT 40SM 17/11 A2975 RMK AO1 T01670111






000
SXUS55 KMSO 300903
OSOMSO
MONTANA AWOS SUMMARY
NATIONAL WEATHER SERVICE MISSOULA MT
303 AM MDT SAT AUG 30 2014

Montana AWOS Reports

LAUREL      |K6S8 300855Z AUTO 00000KT 40SM 16/10 A2983 RMK AO1 T01560100
ROUNDUP     |KRPX 300855Z AUTO 00000KT 40SM 14/10 A2977 RMK AO1 T01440100
MALTA       |KM75 300855Z AUTO 00000KT 40SM 17/11 A2975 RMK AO1 T01670111






000
SXUS55 KMSO 300843
OSOMSO
MONTANA AWOS SUMMARY
NATIONAL WEATHER SERVICE MISSOULA MT
243 AM MDT SAT AUG 30 2014

Montana AWOS Reports

LAUREL      |K6S8 300835Z AUTO 29004KT 40SM 16/11 A2984 RMK AO1 T01560106
ROUNDUP     |KRPX 300835Z AUTO 00000KT 40SM 14/10 A2978 RMK AO1 T01440100
MALTA       |KM75 300835Z AUTO 00000KT 40SM 16/11 A2976 RMK AO1 T01610111






000
SXUS55 KMSO 300833
OSOMSO
MONTANA AWOS SUMMARY
NATIONAL WEATHER SERVICE MISSOULA MT
233 AM MDT SAT AUG 30 2014

Montana AWOS Reports

PLAINS      |KS34 300755Z AUTO 00000KT 40SM 21/04 A2983 RMK AO1 T02110039






000
SXUS55 KMSO 300823
OSOMSO
MONTANA AWOS SUMMARY
NATIONAL WEATHER SERVICE MISSOULA MT
223 AM MDT SAT AUG 30 2014

Montana AWOS Reports

LAUREL      |K6S8 300815Z AUTO 28004KT 40SM 15/11 A2984 RMK AO1 T01500106
ROUNDUP     |KRPX 300815Z AUTO 00000KT 40SM 14/10 A2978 RMK AO1 T01440100
MALTA       |KM75 300815Z AUTO 00000KT 40SM 16/11 A2976 RMK AO1 T01610111






000
SXUS55 KMSO 300813
OSOMSO
MONTANA AWOS SUMMARY
NATIONAL WEATHER SERVICE MISSOULA MT
212 AM MDT SAT AUG 30 2014

Montana AWOS Reports

SCOBEY      |K9S2 300755Z AUTO 13007KT 40SM 13/07 A2988 RMK AO1 T01330067






000
SXUS55 KMSO 300803
OSOMSO
MONTANA AWOS SUMMARY
NATIONAL WEATHER SERVICE MISSOULA MT
203 AM MDT SAT AUG 30 2014

Montana AWOS Reports

LAUREL      |K6S8 300755Z AUTO 30004KT 40SM 15/11 A2984 RMK AO1 T01500106
ROUNDUP     |KRPX 300755Z AUTO 00000KT 40SM 14/10 A2978 RMK AO1 T01440100
MALTA       |KM75 300755Z AUTO 00000KT 40SM 16/11 A2977 RMK AO1 T01610106






000
SXUS55 KMSO 300753
OSOMSO
MONTANA AWOS SUMMARY
NATIONAL WEATHER SERVICE MISSOULA MT
152 AM MDT SAT AUG 30 2014

Montana AWOS Reports

MALTA       |KM75 300555Z AUTO 08006KT 40SM 17/11 A2981 RMK AO1 T01670111
MALTA       |KM75 300655Z AUTO 07004KT 40SM 17/11 A2980 RMK AO1 T01670111






000
SXUS55 KMSO 300743
OSOMSO
MONTANA AWOS SUMMARY
NATIONAL WEATHER SERVICE MISSOULA MT
143 AM MDT SAT AUG 30 2014

Montana AWOS Reports

LAUREL      |K6S8 300735Z AUTO 00000KT 40SM 16/10 A2985 RMK AO1 T01560100
ROUNDUP     |KRPX 300735Z AUTO 00000KT 40SM 14/10 A2978 RMK AO1 T01440100
MALTA       |KM75 300735Z AUTO 08004KT 40SM 17/11 A2978 RMK AO1 T01670111






000
SXUS55 KMSO 300724
OSOMSO
MONTANA AWOS SUMMARY
NATIONAL WEATHER SERVICE MISSOULA MT
123 AM MDT SAT AUG 30 2014

Montana AWOS Reports

LAUREL      |K6S8 300715Z AUTO 00000KT 40SM 16/11 A2985 RMK AO1 T01610106
ROUNDUP     |KRPX 300715Z AUTO 00000KT 40SM 14/10 A2979 RMK AO1 T01440100






000
SXUS55 KMSO 300713
OSOMSO
MONTANA AWOS SUMMARY
NATIONAL WEATHER SERVICE MISSOULA MT
112 AM MDT SAT AUG 30 2014

Montana AWOS Reports

MALTA       |KM75 300455Z AUTO 09004KT 40SM 17/12 A2983 RMK AO1 T01670122






000
SXUS55 KMSO 300703
OSOMSO
MONTANA AWOS SUMMARY
NATIONAL WEATHER SERVICE MISSOULA MT
103 AM MDT SAT AUG 30 2014

Montana AWOS Reports

ROUNDUP     |KRPX 300655Z AUTO 00000KT 40SM 15/10 A2979 RMK AO1 T01500100
SCOBEY      |K9S2 300655Z AUTO 13004KT 40SM 12/07 A2990 RMK AO1 T01220067
PLAINS      |KS34 300655Z AUTO 21004KT 40SM 23/03 A2984 RMK AO1 T02280028
LAUREL      |K6S8 300655Z AUTO 00000KT 40SM 17/11 A2985 RMK AO1 T01670106
MALTA       |KM75 300255Z AUTO 00000KT 40SM 18/12 A2986 RMK AO1 T01830117
MALTA       |KM75 300355Z AUTO 00000KT 40SM 17/12 A2985 RMK AO1 T01720117






000
SXUS55 KMSO 300644
OSOMSO
MONTANA AWOS SUMMARY
NATIONAL WEATHER SERVICE MISSOULA MT
1243 AM MDT SAT AUG 30 2014

Montana AWOS Reports

ROUNDUP     |KRPX 300635Z AUTO 00000KT 40SM 14/09 A2979 RMK AO1 T01440094
MALTA       |KM75 300635Z AUTO 08006KT 40SM 17/11 A2980 RMK AO1 T01670111
LAUREL      |K6S8 300635Z AUTO 00000KT 40SM 17/11 A2986 RMK AO1 T01720111






000
SXUS55 KMSO 300623
OSOMSO
MONTANA AWOS SUMMARY
NATIONAL WEATHER SERVICE MISSOULA MT
1222 AM MDT SAT AUG 30 2014

Montana AWOS Reports

LAUREL      |K6S8 300615Z AUTO 00000KT 40SM 17/09 A2987 RMK AO1 T01720094
ROUNDUP     |KRPX 300615Z AUTO 00000KT 40SM 15/10 A2980 RMK AO1 T01500100
MALTA       |KM75 300615Z AUTO 08007KT 40SM 17/12 A2980 RMK AO1 T01720117






000
SXUS55 KMSO 300613
OSOMSO
MONTANA AWOS SUMMARY
NATIONAL WEATHER SERVICE MISSOULA MT
1213 AM MDT SAT AUG 30 2014

Montana AWOS Reports

MALTA       |KM75 300155Z AUTO 09004KT 40SM 21/13 A2986 RMK AO1 T02110128






000
SXUS55 KMSO 300603
OSOMSO
MONTANA AWOS SUMMARY
NATIONAL WEATHER SERVICE MISSOULA MT
1203 AM MDT SAT AUG 30 2014

Montana AWOS Reports

ROUNDUP     |KRPX 300555Z AUTO 00000KT 40SM 16/10 A2981 RMK AO1 T01610100
PLAINS      |KS34 300555Z AUTO 00000KT 40SM 23/02 A2985 RMK AO1 T02330022
LAUREL      |K6S8 300555Z AUTO 35004KT 40SM 17/10 A2987 RMK AO1 T01720100
SCOBEY      |K9S2 300555Z AUTO 00000KT 40SM 12/06 A2992 RMK AO1 T01220061






000
SXUS55 KMSO 300553
OSOMSO
MONTANA AWOS SUMMARY
NATIONAL WEATHER SERVICE MISSOULA MT
1153 PM MDT FRI AUG 29 2014

Montana AWOS Reports

LAUREL      |K6S8 300535Z AUTO 34005KT 40SM 18/10 A2988 RMK AO1 T01780100






000
SXUS55 KMSO 300543
OSOMSO
MONTANA AWOS SUMMARY
NATIONAL WEATHER SERVICE MISSOULA MT
1142 PM MDT FRI AUG 29 2014

Montana AWOS Reports

PLAINS      |KS34 300455Z AUTO VRB06KT 40SM 24/01 A2984 RMK AO1 T02440011
ROUNDUP     |KRPX 300535Z AUTO 00000KT 40SM 16/09 A2981 RMK AO1 T01610094
MALTA       |KM75 300535Z AUTO 09005KT 40SM 17/12 A2982 RMK AO1 T01670117






000
SXUS55 KMSO 300533
OSOMSO
MONTANA AWOS SUMMARY
NATIONAL WEATHER SERVICE MISSOULA MT
1132 PM MDT FRI AUG 29 2014

Montana AWOS Reports

SCOBEY      |K9S2 300355Z AUTO 14007KT 40SM 14/07 A2993 RMK AO1 T01390067
SCOBEY      |K9S2 300455Z AUTO 13006KT 40SM 13/06 A2993 RMK AO1 T01330061






000
SXUS55 KMSO 300523
OSOMSO
MONTANA AWOS SUMMARY
NATIONAL WEATHER SERVICE MISSOULA MT
1122 PM MDT FRI AUG 29 2014

Montana AWOS Reports

PLAINS      |KS34 300355Z AUTO 20007KT 40SM 24/02 A2984 RMK AO1 T02440022
SCOBEY      |K9S2 300255Z AUTO 14006KT 40SM 14/08 A2994 RMK AO1 T01390078
LAUREL      |K6S8 300515Z AUTO 35005KT 40SM 18/11 A2988 RMK AO1 T01780106
ROUNDUP     |KRPX 300515Z AUTO 00000KT 40SM 17/10 A2982 RMK AO1 T01670100
MALTA       |KM75 300515Z AUTO 09004KT 40SM 17/12 A2982 RMK AO1 T01670117






000
SXUS55 KMSO 300504
OSOMSO
MONTANA AWOS SUMMARY
NATIONAL WEATHER SERVICE MISSOULA MT
1103 PM MDT FRI AUG 29 2014

Montana AWOS Reports

LAUREL      |K6S8 300455Z AUTO 35004KT 40SM 18/11 A2989 RMK AO1 T01780111
ROUNDUP     |KRPX 300455Z AUTO 00000KT 40SM 16/10 A2983 RMK AO1 T01610100
MALTA       |KM75 300455Z AUTO 09004KT 40SM 17/12 A2983 RMK AO1 T01670122
SCOBEY      |K9S2 300155Z AUTO 00000KT 40SM 18/08 A2994 RMK AO1 T01780078






000
SXUS55 KMSO 300453
OSOMSO
MONTANA AWOS SUMMARY
NATIONAL WEATHER SERVICE MISSOULA MT
1053 PM MDT FRI AUG 29 2014

Montana AWOS Reports

LAUREL      |K6S8 300435Z AUTO 35004KT 40SM 18/11 A2990 RMK AO1 T01780111
ROUNDUP     |KRPX 300435Z AUTO 00000KT 40SM 16/09 A2983 RMK AO1 T01610094
MALTA       |KM75 300435Z AUTO 09004KT 40SM 17/12 A2984 RMK AO1 T01670122






000
SXUS55 KMSO 300433
OSOMSO
MONTANA AWOS SUMMARY
NATIONAL WEATHER SERVICE MISSOULA MT
1033 PM MDT FRI AUG 29 2014

Montana AWOS Reports

PLAINS      |KS34 300255Z AUTO 00000KT 40SM 26/02 A2983 RMK AO1 T02560017






000
SXUS55 KMSO 300423
OSOMSO
MONTANA AWOS SUMMARY
NATIONAL WEATHER SERVICE MISSOULA MT
1023 PM MDT FRI AUG 29 2014

Montana AWOS Reports

LAUREL      |K6S8 300415Z AUTO 36004KT 40SM 18/12 A2990 RMK AO1 T01830117
ROUNDUP     |KRPX 300415Z AUTO 00000KT 40SM 17/10 A2984 RMK AO1 T01720100
MALTA       |KM75 300415Z AUTO 00000KT 40SM 17/12 A2984 RMK AO1 T01670117






000
SXUS55 KMSO 300403
OSOMSO
MONTANA AWOS SUMMARY
NATIONAL WEATHER SERVICE MISSOULA MT
1003 PM MDT FRI AUG 29 2014

Montana AWOS Reports

LAUREL      |K6S8 300355Z AUTO 36006KT 40SM 18/11 A2990 RMK AO1 T01830111
ROUNDUP     |KRPX 300355Z AUTO 00000KT 40SM 17/09 A2985 RMK AO1 T01720094






000
SXUS55 KMSO 300343
OSOMSO
MONTANA AWOS SUMMARY
NATIONAL WEATHER SERVICE MISSOULA MT
943 PM MDT FRI AUG 29 2014

Montana AWOS Reports

LAUREL      |K6S8 300335Z AUTO 02004KT 25SM 19/12 A2991 RMK AO1 T01890117
ROUNDUP     |KRPX 300335Z AUTO 00000KT 40SM 18/09 A2985 RMK AO1 T01780094






000
SXUS55 KMSO 300323
OSOMSO
MONTANA AWOS SUMMARY
NATIONAL WEATHER SERVICE MISSOULA MT
923 PM MDT FRI AUG 29 2014

Montana AWOS Reports

LAUREL      |K6S8 300315Z AUTO 00000KT 40SM 19/12 A2992 RMK AO1 T01940122
ROUNDUP     |KRPX 300315Z AUTO 00000KT 40SM 18/10 A2985 RMK AO1 T01830100
MALTA       |KM75 300315Z AUTO 00000KT 40SM 18/12 A2986 RMK AO1 T01780117






000
SXUS55 KMSO 300303
OSOMSO
MONTANA AWOS SUMMARY
NATIONAL WEATHER SERVICE MISSOULA MT
903 PM MDT FRI AUG 29 2014

Montana AWOS Reports

LAUREL      |K6S8 300255Z AUTO 00000KT 40SM 20/12 A2992 RMK AO1 T02000122
ROUNDUP     |KRPX 300255Z AUTO 00000KT 40SM 18/09 A2985 RMK AO1 T01830094






000
SXUS55 KMSO 300243
OSOMSO
MONTANA AWOS SUMMARY
NATIONAL WEATHER SERVICE MISSOULA MT
843 PM MDT FRI AUG 29 2014

Montana AWOS Reports

LAUREL      |K6S8 300235Z AUTO 00000KT 40SM 20/12 A2992 RMK AO1 T02000122
ROUNDUP     |KRPX 300235Z AUTO 00000KT 40SM 19/10 A2985 RMK AO1 T01940100






000
SXUS55 KMSO 300224
OSOMSO
MONTANA AWOS SUMMARY
NATIONAL WEATHER SERVICE MISSOULA MT
823 PM MDT FRI AUG 29 2014

Montana AWOS Reports

LAUREL      |K6S8 300215Z AUTO 03005KT 40SM 21/12 A2992 RMK AO1 T02060122
ROUNDUP     |KRPX 300215Z AUTO 00000KT 40SM 20/10 A2985 RMK AO1 T02000100
MALTA       |KM75 300215Z AUTO 00000KT 40SM 20/13 A2986 RMK AO1 T02000128






000
SXUS55 KMSO 300203
OSOMSO
MONTANA AWOS SUMMARY
NATIONAL WEATHER SERVICE MISSOULA MT
803 PM MDT FRI AUG 29 2014

Montana AWOS Reports

LAUREL      |K6S8 300155Z AUTO 03004KT 40SM 21/12 A2992 RMK AO1 T02110122
ROUNDUP     |KRPX 300155Z AUTO 00000KT 40SM 21/10 A2985 RMK AO1 T02060100






000
SXUS55 KMSO 300143
OSOMSO
MONTANA AWOS SUMMARY
NATIONAL WEATHER SERVICE MISSOULA MT
743 PM MDT FRI AUG 29 2014

Montana AWOS Reports

LAUREL      |K6S8 300135Z AUTO 04005KT 40SM 22/12 A2992 RMK AO1 T02220122
ROUNDUP     |KRPX 300135Z AUTO 00000KT 40SM 22/09 A2985 RMK AO1 T02170094
MALTA       |KM75 300135Z AUTO 00000KT 40SM 22/13 A2986 RMK AO1 T02170128






000
SXUS55 KMSO 300133
OSOMSO
MONTANA AWOS SUMMARY
NATIONAL WEATHER SERVICE MISSOULA MT
732 PM MDT FRI AUG 29 2014

Montana AWOS Reports

SCOBEY      |K9S2 300055Z AUTO 00000KT 40SM 21/07 A2994 RMK AO1 T02110067






000
SXUS55 KMSO 300124
OSOMSO
MONTANA AWOS SUMMARY
NATIONAL WEATHER SERVICE MISSOULA MT
723 PM MDT FRI AUG 29 2014

Montana AWOS Reports

LAUREL      |K6S8 300115Z AUTO 05006KT 40SM 23/12 A2992 RMK AO1 T02280122
ROUNDUP     |KRPX 300115Z AUTO 11004KT 40SM 23/09 A2985 RMK AO1 T02280094
MALTA       |KM75 300115Z AUTO 09006KT 40SM 22/13 A2986 RMK AO1 T02220128
PLAINS      |KS34 300055Z AUTO 22006KT 40SM 30/04 A2981 RMK AO1 T03000039






000
SXUS55 KMSO 300103
OSOMSO
MONTANA AWOS SUMMARY
NATIONAL WEATHER SERVICE MISSOULA MT
703 PM MDT FRI AUG 29 2014

Montana AWOS Reports

LAUREL      |K6S8 300055Z AUTO 05006KT 40SM 24/13 A2992 RMK AO1 T02390128
ROUNDUP     |KRPX 300055Z AUTO 12005KT 40SM 23/09 A2986 RMK AO1 T02330094
MALTA       |KM75 300055Z AUTO 11004KT 40SM 22/12 A2987 RMK AO1 T02220122






000
SXUS55 KMSO 300053
OSOMSO
MONTANA AWOS SUMMARY
NATIONAL WEATHER SERVICE MISSOULA MT
652 PM MDT FRI AUG 29 2014

Montana AWOS Reports

LAUREL      |K6S8 300035Z AUTO 06007KT 40SM 24/12 A2992 RMK AO1 T02440122
ROUNDUP     |KRPX 300035Z AUTO 10006KT 40SM 24/09 A2986 RMK AO1 T02390094






000
SXUS55 KMSO 300033
OSOMSO
MONTANA AWOS SUMMARY
NATIONAL WEATHER SERVICE MISSOULA MT
633 PM MDT FRI AUG 29 2014

Montana AWOS Reports

LAUREL      |K6S8 300015Z AUTO 05007KT 40SM 24/12 A2993 RMK AO1 T02440117
ROUNDUP     |KRPX 300015Z AUTO 12006KT 40SM 24/09 A2986 RMK AO1 T02390089
MALTA       |KM75 300015Z AUTO 12005KT 40SM 23/12 A2988 RMK AO1 T02280117






000
SXUS55 KMSO 300003
OSOMSO
MONTANA AWOS SUMMARY
NATIONAL WEATHER SERVICE MISSOULA MT
603 PM MDT FRI AUG 29 2014

Montana AWOS Reports

LAUREL      |K6S8 292355Z AUTO 05008KT 40SM 25/12 A2993 RMK AO1 T02500122
ROUNDUP     |KRPX 292355Z AUTO 10007KT 40SM 24/09 A2986 RMK AO1 T02440094
PLAINS      |KS34 292355Z AUTO 26009G13KT 40SM 31/04 A2982 RMK AO1 T03110039






    US Dept of Commerce
    National Oceanic and Atmospheric Administration
    National Weather Service
    1325 East West Highway
    Silver Spring, MD 20910
    Page Author: NWS Internet Services Team
Disclaimer
Information Quality
Credits
Glossary
Privacy Policy
Freedom of Information Act (FOIA)
About Us
Career Opportunities